Wetterdaten: Mittwoch, 16.08.2023
Datum Zeit Temp. Aussen Temp. o. S. Temp +5cm Feuchte Auss Luftdruck Regen Sonnenschein Regendauer Solar Windben Empfang
16.08.2023 00:00 21,2 C 20,0 C 16,7 C 84 % 1019,0 hPa 0,0 l/m 0 min 0 min 0 W/m 6,4 km/h (2 Bft) 97,87 %
16.08.2023 00:02 21,2 C 20,0 C 16,7 C 84 % 1019,0 hPa 0,0 l/m 0 min 0 min 0 W/m 3,2 km/h (1 Bft) 97,14 %
16.08.2023 00:04 21,2 C 20,0 C 16,7 C 84 % 1019,0 hPa 0,0 l/m 0 min 0 min 0 W/m 6,4 km/h (2 Bft) 97,92 %
16.08.2023 00:07 21,1 C 20,0 C 16,7 C 85 % 1019,0 hPa 0,0 l/m 0 min 0 min 0 W/m 3,2 km/h (1 Bft) 97,44 %
16.08.2023 00:10 21,1 C 20,0 C 16,7 C 85 % 1019,0 hPa 0,0 l/m 0 min 0 min 0 W/m 3,2 km/h (1 Bft) 95,77 %
16.08.2023 00:12 21,1 C 20,0 C 16,7 C 85 % 1019,0 hPa 0,0 l/m 0 min 0 min 0 W/m 3,2 km/h (1 Bft) 97,87 %
16.08.2023 00:14 21,1 C 20,0 C 16,7 C 85 % 1019,0 hPa 0,0 l/m 0 min 0 min 0 W/m 9,7 km/h (2 Bft) 97,83 %
16.08.2023 00:16 21,1 C 20,0 C 16,7 C 85 % 1019,0 hPa 0,0 l/m 0 min 0 min 0 W/m 3,2 km/h (1 Bft) 95,74 %
16.08.2023 00:18 21,0 C 20,0 C 16,1 C 85 % 1019,0 hPa 0,0 l/m 0 min 0 min 0 W/m 6,4 km/h (2 Bft) 91,49 %
16.08.2023 00:20 21,0 C 20,0 C 16,1 C 86 % 1019,1 hPa 0,0 l/m 0 min 0 min 0 W/m 6,4 km/h (2 Bft) 97,87 %
16.08.2023 00:22 20,9 C 20,0 C 16,1 C 86 % 1019,1 hPa 0,0 l/m 0 min 0 min 0 W/m 6,4 km/h (2 Bft) 95,74 %
16.08.2023 00:24 20,9 C 20,0 C 16,1 C 86 % 1019,2 hPa 0,0 l/m 0 min 0 min 0 W/m 6,4 km/h (2 Bft) 95,74 %
16.08.2023 00:26 20,9 C 20,0 C 16,1 C 86 % 1019,2 hPa 0,0 l/m 0 min 0 min 0 W/m 3,2 km/h (1 Bft) 93,48 %
16.08.2023 00:28 20,9 C 20,0 C 16,1 C 86 % 1019,2 hPa 0,0 l/m 0 min 0 min 0 W/m 0,0 km/h (0 Bft) 93,62 %
16.08.2023 00:30 20,8 C 20,0 C 16,1 C 86 % 1019,2 hPa 0,0 l/m 0 min 0 min 0 W/m 3,2 km/h (1 Bft) 95,74 %
16.08.2023 00:32 20,8 C 20,0 C 16,1 C 87 % 1019,2 hPa 0,0 l/m 0 min 0 min 0 W/m 0,0 km/h (0 Bft) 91,49 %
16.08.2023 00:34 20,8 C 19,4 C 16,1 C 87 % 1019,2 hPa 0,0 l/m 0 min 0 min 0 W/m 6,4 km/h (2 Bft) 95,74 %
16.08.2023 00:36 20,8 C 19,4 C 16,1 C 87 % 1019,2 hPa 0,0 l/m 0 min 0 min 0 W/m 3,2 km/h (1 Bft) 93,62 %
16.08.2023 00:38 20,8 C 19,4 C 16,1 C 87 % 1019,2 hPa 0,0 l/m 0 min 0 min 0 W/m 6,4 km/h (2 Bft) 95,74 %
16.08.2023 00:40 20,7 C 19,4 C 16,1 C 87 % 1019,2 hPa 0,0 l/m 0 min 0 min 0 W/m 6,4 km/h (2 Bft) 93,48 %
16.08.2023 00:42 20,7 C 19,4 C 16,1 C 87 % 1019,2 hPa 0,0 l/m 0 min 0 min 0 W/m 3,2 km/h (1 Bft) 93,62 %
16.08.2023 00:44 20,7 C 19,4 C 16,1 C 87 % 1019,2 hPa 0,0 l/m 0 min 0 min 0 W/m 12,9 km/h (3 Bft) 93,62 %
16.08.2023 00:46 20,6 C 19,4 C 16,1 C 87 % 1019,2 hPa 0,0 l/m 0 min 0 min 0 W/m 3,2 km/h (1 Bft) 95,74 %
16.08.2023 00:48 20,6 C 19,4 C 16,1 C 87 % 1019,2 hPa 0,0 l/m 0 min 0 min 0 W/m 0,0 km/h (0 Bft) 95,74 %
16.08.2023 00:50 20,6 C 19,4 C 16,1 C 87 % 1019,2 hPa 0,0 l/m 0 min 0 min 0 W/m 0,0 km/h (0 Bft) 95,74 %
16.08.2023 00:52 20,6 C 19,4 C 16,1 C 87 % 1019,2 hPa 0,0 l/m 0 min 0 min 0 W/m 3,2 km/h (1 Bft) 95,65 %
16.08.2023 00:54 20,6 C 19,4 C 16,1 C 88 % 1019,3 hPa 0,0 l/m 0 min 0 min 0 W/m 3,2 km/h (1 Bft) 93,62 %
16.08.2023 00:56 20,6 C 19,4 C 16,1 C 88 % 1019,3 hPa 0,0 l/m 0 min 0 min 0 W/m 3,2 km/h (1 Bft) 95,74 %
16.08.2023 00:58 20,5 C 19,4 C 16,1 C 88 % 1019,3 hPa 0,0 l/m 0 min 0 min 0 W/m 3,2 km/h (1 Bft) 97,87 %
16.08.2023 01:00 20,5 C 19,4 C 16,1 C 88 % 1019,3 hPa 0,0 l/m 0 min 0 min 0 W/m 6,4 km/h (2 Bft) 97,87 %
16.08.2023 01:02 20,5 C 19,4 C 16,1 C 88 % 1019,4 hPa 0,0 l/m 0 min 0 min 0 W/m 6,4 km/h (2 Bft) 97,87 %
16.08.2023 01:04 20,5 C 19,4 C 16,1 C 88 % 1019,4 hPa 0,0 l/m 0 min 0 min 0 W/m 3,2 km/h (1 Bft) 95,12 %
16.08.2023 01:06 20,4 C 19,4 C 16,1 C 88 % 1019,4 hPa 0,0 l/m 0 min 0 min 0 W/m 9,7 km/h (2 Bft) 96,15 %
16.08.2023 01:08 20,4 C 19,4 C 16,1 C 88 % 1019,3 hPa 0,0 l/m 0 min 0 min 0 W/m 3,2 km/h (1 Bft) 97,62 %
16.08.2023 01:10 20,4 C 19,4 C 16,1 C 88 % 1019,4 hPa 0,0 l/m 0 min 0 min 0 W/m 6,4 km/h (2 Bft) 97,83 %
16.08.2023 01:12 20,4 C 19,4 C 16,1 C 88 % 1019,4 hPa 0,0 l/m 0 min 0 min 0 W/m 3,2 km/h (1 Bft) 97,87 %
16.08.2023 01:14 20,3 C 19,4 C 16,1 C 88 % 1019,3 hPa 0,0 l/m 0 min 0 min 0 W/m 3,2 km/h (1 Bft) 97,87 %
16.08.2023 01:16 20,3 C 19,4 C 16,1 C 88 % 1019,3 hPa 0,0 l/m 0 min 0 min 0 W/m 3,2 km/h (1 Bft) 100,00 %
16.08.2023 01:18 20,3 C 19,4 C 16,1 C 88 % 1019,3 hPa 0,0 l/m 0 min 0 min 0 W/m 3,2 km/h (1 Bft) 97,87 %
16.08.2023 01:20 20,3 C 19,4 C 15,6 C 88 % 1019,4 hPa 0,0 l/m 0 min 0 min 0 W/m 0,0 km/h (0 Bft) 100,00 %
16.08.2023 01:22 20,3 C 19,4 C 15,6 C 88 % 1019,3 hPa 0,0 l/m 0 min 0 min 0 W/m 3,2 km/h (1 Bft) 100,00 %
16.08.2023 01:24 20,3 C 19,4 C 15,6 C 88 % 1019,3 hPa 0,0 l/m 0 min 0 min 0 W/m 3,2 km/h (1 Bft) 100,00 %
16.08.2023 01:26 20,2 C 19,4 C 15,6 C 88 % 1019,4 hPa 0,0 l/m 0 min 0 min 0 W/m 3,2 km/h (1 Bft) 100,00 %
16.08.2023 01:28 20,2 C 18,9 C 15,6 C 88 % 1019,4 hPa 0,0 l/m 0 min 0 min 0 W/m 3,2 km/h (1 Bft) 97,87 %
16.08.2023 01:30 20,2 C 18,9 C 15,6 C 88 % 1019,5 hPa 0,0 l/m 0 min 0 min 0 W/m 0,0 km/h (0 Bft) 100,00 %
16.08.2023 01:32 20,2 C 18,9 C 15,6 C 88 % 1019,4 hPa 0,0 l/m 0 min 0 min 0 W/m 3,2 km/h (1 Bft) 97,87 %
16.08.2023 01:34 20,1 C 18,9 C 15,6 C 88 % 1019,4 hPa 0,0 l/m 0 min 0 min 0 W/m 3,2 km/h (1 Bft) 100,00 %
16.08.2023 01:36 20,1 C 18,9 C 15,6 C 88 % 1019,4 hPa 0,0 l/m 0 min 0 min 0 W/m 6,4 km/h (2 Bft) 100,00 %
16.08.2023 01:38 20,1 C 18,9 C 15,6 C 88 % 1019,4 hPa 0,0 l/m 0 min 0 min 0 W/m 3,2 km/h (1 Bft) 100,00 %
16.08.2023 01:40 20,1 C 18,9 C 15,6 C 88 % 1019,4 hPa 0,0 l/m 0 min 0 min 0 W/m 0,0 km/h (0 Bft) 100,00 %
16.08.2023 01:42 20,0 C 18,9 C 15,6 C 88 % 1019,4 hPa 0,0 l/m 0 min 0 min 0 W/m 3,2 km/h (1 Bft) 97,87 %
16.08.2023 01:44 20,0 C 18,9 C 15,6 C 87 % 1019,4 hPa 0,0 l/m 0 min 0 min 0 W/m 6,4 km/h (2 Bft) 100,00 %
16.08.2023 01:46 19,9 C 18,9 C 15,6 C 88 % 1019,4 hPa 0,0 l/m 0 min 0 min 0 W/m 3,2 km/h (1 Bft) 100,00 %
16.08.2023 01:48 19,9 C 18,9 C 15,6 C 87 % 1019,4 hPa 0,0 l/m 0 min 0 min 0 W/m 3,2 km/h (1 Bft) 100,00 %
16.08.2023 01:50 19,9 C 18,9 C 15,6 C 87 % 1019,3 hPa 0,0 l/m 0 min 0 min 0 W/m 3,2 km/h (1 Bft) 100,00 %
16.08.2023 01:52 19,8 C 18,9 C 15,6 C 87 % 1019,3 hPa 0,0 l/m 0 min 0 min 0 W/m 6,4 km/h (2 Bft) 100,00 %
16.08.2023 01:54 19,8 C 18,9 C 15,6 C 87 % 1019,3 hPa 0,0 l/m 0 min 0 min 0 W/m 3,2 km/h (1 Bft) 100,00 %
16.08.2023 01:56 19,8 C 18,9 C 15,6 C 87 % 1019,3 hPa 0,0 l/m 0 min 0 min 0 W/m 3,2 km/h (1 Bft) 100,00 %
16.08.2023 01:58 19,8 C 18,9 C 15,6 C 87 % 1019,2 hPa 0,0 l/m 0 min 0 min 0 W/m 6,4 km/h (2 Bft) 100,00 %
16.08.2023 02:00 19,8 C 18,9 C 15,6 C 87 % 1019,3 hPa 0,0 l/m 0 min 0 min 0 W/m 3,2 km/h (1 Bft) 100,00 %
16.08.2023 02:02 19,8 C 18,9 C 15,6 C 87 % 1019,3 hPa 0,0 l/m 0 min 0 min 0 W/m 6,4 km/h (2 Bft) 100,00 %
16.08.2023 02:04 19,8 C 18,9 C 15,6 C 87 % 1019,3 hPa 0,0 l/m 0 min 0 min 0 W/m 3,2 km/h (1 Bft) 100,00 %
16.08.2023 02:06 19,8 C 18,9 C 15,6 C 87 % 1019,3 hPa 0,0 l/m 0 min 0 min 0 W/m 3,2 km/h (1 Bft) 100,00 %
16.08.2023 02:08 19,7 C 18,9 C 15,6 C 87 % 1019,2 hPa 0,0 l/m 0 min 0 min 0 W/m 3,2 km/h (1 Bft) 97,87 %
16.08.2023 02:10 19,7 C 18,9 C 15,6 C 87 % 1019,3 hPa 0,0 l/m 0 min 0 min 0 W/m 3,2 km/h (1 Bft) 97,87 %
16.08.2023 02:12 19,7 C 18,9 C 15,6 C 87 % 1019,2 hPa 0,0 l/m 0 min 0 min 0 W/m 12,9 km/h (3 Bft) 100,00 %
16.08.2023 02:14 19,7 C 18,9 C 15,6 C 87 % 1019,1 hPa 0,0 l/m 0 min 0 min 0 W/m 3,2 km/h (1 Bft) 100,00 %
16.08.2023 02:16 19,7 C 18,9 C 15,6 C 87 % 1019,2 hPa 0,0 l/m 0 min 0 min 0 W/m 6,4 km/h (2 Bft) 100,00 %
16.08.2023 02:18 19,7 C 18,9 C 15,6 C 87 % 1019,1 hPa 0,0 l/m 0 min 0 min 0 W/m 3,2 km/h (1 Bft) 97,87 %
16.08.2023 02:20 19,6 C 18,9 C 15,6 C 87 % 1019,1 hPa 0,0 l/m 0 min 0 min 0 W/m 3,2 km/h (1 Bft) 95,74 %
16.08.2023 02:22 19,6 C 18,9 C 15,0 C 87 % 1019,1 hPa 0,0 l/m 0 min 0 min 0 W/m 3,2 km/h (1 Bft) 97,87 %
16.08.2023 02:24 19,6 C 18,9 C 15,0 C 87 % 1019,1 hPa 0,0 l/m 0 min 0 min 0 W/m 3,2 km/h (1 Bft) 97,87 %
16.08.2023 02:26 19,6 C 18,9 C 15,0 C 87 % 1019,1 hPa 0,0 l/m 0 min 0 min 0 W/m 3,2 km/h (1 Bft) 97,87 %
16.08.2023 02:28 19,6 C 18,9 C 15,0 C 87 % 1019,1 hPa 0,0 l/m 0 min 0 min 0 W/m 3,2 km/h (1 Bft) 97,83 %
16.08.2023 02:30 19,6 C 18,3 C 15,0 C 87 % 1019,1 hPa 0,0 l/m 0 min 0 min 0 W/m 3,2 km/h (1 Bft) 95,74 %
16.08.2023 02:32 19,5 C 18,3 C 15,0 C 87 % 1019,0 hPa 0,0 l/m 0 min 0 min 0 W/m 6,4 km/h (2 Bft) 97,87 %
16.08.2023 02:34 19,4 C 18,3 C 15,0 C 88 % 1019,1 hPa 0,0 l/m 0 min 0 min 0 W/m 3,2 km/h (1 Bft) 97,87 %
16.08.2023 02:36 19,4 C 18,3 C 15,0 C 87 % 1019,1 hPa 0,0 l/m 0 min 0 min 0 W/m 6,4 km/h (2 Bft) 93,62 %
16.08.2023 02:38 19,4 C 18,3 C 15,0 C 88 % 1019,1 hPa 0,0 l/m 0 min 0 min 0 W/m 6,4 km/h (2 Bft) 95,74 %
16.08.2023 02:40 19,4 C 18,3 C 15,0 C 88 % 1019,1 hPa 0,0 l/m 0 min 0 min 0 W/m 6,4 km/h (2 Bft) 95,65 %
16.08.2023 02:42 19,3 C 18,3 C 15,0 C 88 % 1019,1 hPa 0,0 l/m 0 min 0 min 0 W/m 6,4 km/h (2 Bft) 93,62 %
16.08.2023 02:44 19,3 C 18,3 C 15,0 C 88 % 1019,1 hPa 0,0 l/m 0 min 0 min 0 W/m 3,2 km/h (1 Bft) 91,49 %
16.08.2023 02:46 19,3 C 18,3 C 15,0 C 88 % 1019,1 hPa 0,0 l/m 0 min 0 min 0 W/m 3,2 km/h (1 Bft) 95,74 %
16.08.2023 02:48 19,2 C 18,3 C 15,0 C 88 % 1019,1 hPa 0,0 l/m 0 min 0 min 0 W/m 6,4 km/h (2 Bft) 97,87 %
16.08.2023 02:50 19,2 C 18,3 C 15,0 C 88 % 1019,1 hPa 0,0 l/m 0 min 0 min 0 W/m 3,2 km/h (1 Bft) 95,74 %
16.08.2023 02:52 19,2 C 18,3 C 15,0 C 88 % 1019,1 hPa 0,0 l/m 0 min 0 min 0 W/m 3,2 km/h (1 Bft) 95,65 %
16.08.2023 02:54 19,2 C 18,3 C 15,0 C 89 % 1019,1 hPa 0,0 l/m 0 min 0 min 0 W/m 6,4 km/h (2 Bft) 97,87 %
16.08.2023 02:56 19,2 C 18,3 C 15,0 C 89 % 1019,2 hPa 0,0 l/m 0 min 0 min 0 W/m 3,2 km/h (1 Bft) 95,74 %
16.08.2023 02:58 19,2 C 18,3 C 15,0 C 89 % 1019,2 hPa 0,0 l/m 0 min 0 min 0 W/m 0,0 km/h (0 Bft) 97,87 %
16.08.2023 03:00 19,1 C 18,3 C 15,0 C 89 % 1019,1 hPa 0,0 l/m 0 min 0 min 0 W/m 3,2 km/h (1 Bft) 95,74 %
16.08.2023 03:02 19,1 C 18,3 C 15,0 C 89 % 1019,1 hPa 0,0 l/m 0 min 0 min 0 W/m 6,4 km/h (2 Bft) 97,83 %
16.08.2023 03:04 19,1 C 18,3 C 14,4 C 89 % 1019,1 hPa 0,0 l/m 0 min 0 min 0 W/m 3,2 km/h (1 Bft) 95,92 %
16.08.2023 03:06 19,1 C 18,3 C 14,4 C 89 % 1019,2 hPa 0,0 l/m 0 min 0 min 0 W/m 3,2 km/h (1 Bft) 97,87 %
16.08.2023 03:08 19,1 C 18,3 C 14,4 C 89 % 1019,2 hPa 0,0 l/m 0 min 0 min 0 W/m 3,2 km/h (1 Bft) 97,87 %
16.08.2023 03:10 19,1 C 18,3 C 14,4 C 89 % 1019,2 hPa 0,0 l/m 0 min 0 min 0 W/m 3,2 km/h (1 Bft) 95,74 %
16.08.2023 03:12 19,1 C 18,3 C 14,4 C 89 % 1019,1 hPa 0,0 l/m 0 min 0 min 0 W/m 3,2 km/h (1 Bft) 95,74 %
16.08.2023 03:14 19,1 C 18,3 C 14,4 C 89 % 1019,1 hPa 0,0 l/m 0 min 0 min 0 W/m 3,2 km/h (1 Bft) 95,74 %
16.08.2023 03:16 19,1 C 18,3 C 14,4 C 89 % 1019,1 hPa 0,0 l/m 0 min 0 min 0 W/m 3,2 km/h (1 Bft) 95,65 %
16.08.2023 03:18 19,1 C 18,3 C 14,4 C 89 % 1019,0 hPa 0,0 l/m 0 min 0 min 0 W/m 3,2 km/h (1 Bft) 91,49 %
16.08.2023 03:20 19,1 C 18,3 C 14,4 C 90 % 1019,0 hPa 0,0 l/m 0 min 0 min 0 W/m 3,2 km/h (1 Bft) 95,74 %
16.08.2023 03:22 19,0 C 18,3 C 14,4 C 90 % 1019,0 hPa 0,0 l/m 0 min 0 min 0 W/m 3,2 km/h (1 Bft) 93,62 %
16.08.2023 03:24 19,0 C 18,3 C 14,4 C 90 % 1019,0 hPa 0,0 l/m 0 min 0 min 0 W/m 3,2 km/h (1 Bft) 95,74 %
16.08.2023 03:26 19,0 C 18,3 C 15,0 C 90 % 1019,0 hPa 0,0 l/m 0 min 0 min 0 W/m 3,2 km/h (1 Bft) 97,87 %
16.08.2023 03:28 19,0 C 18,3 C 15,0 C 90 % 1019,0 hPa 0,0 l/m 0 min 0 min 0 W/m 3,2 km/h (1 Bft) 95,65 %
16.08.2023 03:30 19,0 C 18,3 C 15,0 C 90 % 1019,1 hPa 0,0 l/m 0 min 0 min 0 W/m 3,2 km/h (1 Bft) 97,87 %
16.08.2023 03:32 19,0 C 18,3 C 15,0 C 90 % 1019,1 hPa 0,0 l/m 0 min 0 min 0 W/m 3,2 km/h (1 Bft) 97,87 %
16.08.2023 03:34 19,0 C 18,3 C 15,0 C 90 % 1019,0 hPa 0,0 l/m 0 min 0 min 0 W/m 6,4 km/h (2 Bft) 97,87 %
16.08.2023 03:36 19,0 C 18,3 C 15,0 C 90 % 1019,0 hPa 0,0 l/m 0 min 0 min 0 W/m 3,2 km/h (1 Bft) 97,87 %
16.08.2023 03:38 19,0 C 18,3 C 15,0 C 90 % 1019,0 hPa 0,0 l/m 0 min 0 min 0 W/m 0,0 km/h (0 Bft) 97,87 %
16.08.2023 03:40 19,1 C 18,3 C 15,0 C 90 % 1019,0 hPa 0,0 l/m 0 min 0 min 0 W/m 0,0 km/h (0 Bft) 95,74 %
16.08.2023 03:42 19,0 C 18,3 C 15,0 C 90 % 1019,1 hPa 0,0 l/m 0 min 0 min 0 W/m 0,0 km/h (0 Bft) 97,87 %
16.08.2023 03:45 19,0 C 18,3 C 15,0 C 90 % 1019,0 hPa 0,0 l/m 0 min 0 min 0 W/m 9,7 km/h (2 Bft) 100,00 %
16.08.2023 03:48 19,0 C 18,3 C 15,0 C 90 % 1019,0 hPa 0,0 l/m 0 min 0 min 0 W/m 3,2 km/h (1 Bft) 100,00 %
16.08.2023 03:50 19,0 C 18,3 C 15,0 C 90 % 1019,0 hPa 0,0 l/m 0 min 0 min 0 W/m 3,2 km/h (1 Bft) 100,00 %
16.08.2023 03:52 19,0 C 18,3 C 14,4 C 90 % 1019,0 hPa 0,0 l/m 0 min 0 min 0 W/m 3,2 km/h (1 Bft) 100,00 %
16.08.2023 03:54 18,9 C 17,8 C 14,4 C 90 % 1019,0 hPa 0,0 l/m 0 min 0 min 0 W/m 9,7 km/h (2 Bft) 97,87 %
16.08.2023 03:56 18,9 C 17,8 C 14,4 C 90 % 1019,0 hPa 0,0 l/m 0 min 0 min 0 W/m 3,2 km/h (1 Bft) 97,87 %
16.08.2023 03:58 18,9 C 17,8 C 14,4 C 90 % 1019,0 hPa 0,0 l/m 0 min 0 min 0 W/m 3,2 km/h (1 Bft) 97,83 %
16.08.2023 04:00 18,9 C 17,8 C 14,4 C 90 % 1019,0 hPa 0,0 l/m 0 min 0 min 0 W/m 3,2 km/h (1 Bft) 100,00 %
16.08.2023 04:02 18,9 C 17,8 C 14,4 C 90 % 1019,0 hPa 0,0 l/m 0 min 0 min 0 W/m 3,2 km/h (1 Bft) 100,00 %
16.08.2023 04:04 18,9 C 17,8 C 14,4 C 90 % 1019,0 hPa 0,0 l/m 0 min 0 min 0 W/m 3,2 km/h (1 Bft) 100,00 %
16.08.2023 04:06 18,9 C 17,8 C 14,4 C 90 % 1019,1 hPa 0,0 l/m 0 min 0 min 0 W/m 0,0 km/h (0 Bft) 97,87 %
16.08.2023 04:08 18,9 C 17,8 C 14,4 C 90 % 1019,1 hPa 0,0 l/m 0 min 0 min 0 W/m 3,2 km/h (1 Bft) 95,74 %
16.08.2023 04:10 18,9 C 17,8 C 14,4 C 91 % 1019,1 hPa 0,0 l/m 0 min 0 min 0 W/m 3,2 km/h (1 Bft) 97,83 %
16.08.2023 04:12 18,9 C 17,8 C 14,4 C 91 % 1019,1 hPa 0,0 l/m 0 min 0 min 0 W/m 0,0 km/h (0 Bft) 95,74 %
16.08.2023 04:14 18,9 C 17,8 C 14,4 C 91 % 1019,1 hPa 0,0 l/m 0 min 0 min 0 W/m 3,2 km/h (1 Bft) 97,87 %
16.08.2023 04:16 18,9 C 17,8 C 14,4 C 91 % 1019,1 hPa 0,0 l/m 0 min 0 min 0 W/m 3,2 km/h (1 Bft) 97,87 %
16.08.2023 04:18 18,9 C 18,3 C 14,4 C 91 % 1019,1 hPa 0,0 l/m 0 min 0 min 0 W/m 3,2 km/h (1 Bft) 97,87 %
16.08.2023 04:20 18,9 C 18,3 C 15,0 C 91 % 1019,1 hPa 0,0 l/m 0 min 0 min 0 W/m 3,2 km/h (1 Bft) 97,87 %
16.08.2023 04:22 18,9 C 18,3 C 15,0 C 91 % 1019,0 hPa 0,0 l/m 0 min 0 min 0 W/m 3,2 km/h (1 Bft) 97,83 %
16.08.2023 04:24 18,9 C 18,3 C 15,0 C 91 % 1019,0 hPa 0,0 l/m 0 min 0 min 0 W/m 3,2 km/h (1 Bft) 97,87 %
16.08.2023 04:26 18,9 C 18,3 C 15,0 C 91 % 1019,0 hPa 0,0 l/m 0 min 0 min 0 W/m 3,2 km/h (1 Bft) 97,87 %
16.08.2023 04:28 18,9 C 18,3 C 15,0 C 91 % 1019,0 hPa 0,0 l/m 0 min 0 min 0 W/m 3,2 km/h (1 Bft) 97,87 %
16.08.2023 04:30 18,9 C 18,3 C 14,4 C 91 % 1018,9 hPa 0,0 l/m 0 min 0 min 0 W/m 0,0 km/h (0 Bft) 95,74 %
16.08.2023 04:32 18,9 C 17,8 C 14,4 C 91 % 1019,0 hPa 0,0 l/m 0 min 0 min 0 W/m 0,0 km/h (0 Bft) 97,87 %
16.08.2023 04:34 18,9 C 17,8 C 14,4 C 91 % 1019,0 hPa 0,0 l/m 0 min 0 min 0 W/m 0,0 km/h (0 Bft) 97,87 %
16.08.2023 04:36 18,9 C 17,8 C 14,4 C 91 % 1019,0 hPa 0,0 l/m 0 min 0 min 0 W/m 0,0 km/h (0 Bft) 97,83 %
16.08.2023 04:38 18,9 C 17,8 C 14,4 C 91 % 1019,0 hPa 0,0 l/m 0 min 0 min 0 W/m 0,0 km/h (0 Bft) 100,00 %
16.08.2023 04:40 18,8 C 17,8 C 14,4 C 91 % 1019,0 hPa 0,0 l/m 0 min 0 min 0 W/m 0,0 km/h (0 Bft) 100,00 %
16.08.2023 04:42 18,9 C 17,8 C 14,4 C 91 % 1018,9 hPa 0,0 l/m 0 min 0 min 0 W/m 0,0 km/h (0 Bft) 100,00 %
16.08.2023 04:44 18,9 C 17,8 C 14,4 C 91 % 1019,0 hPa 0,0 l/m 0 min 0 min 0 W/m 0,0 km/h (0 Bft) 100,00 %
16.08.2023 04:46 18,8 C 17,8 C 14,4 C 91 % 1019,0 hPa 0,0 l/m 0 min 0 min 0 W/m 0,0 km/h (0 Bft) 100,00 %
16.08.2023 04:48 18,9 C 17,8 C 14,4 C 91 % 1019,0 hPa 0,0 l/m 0 min 0 min 0 W/m 0,0 km/h (0 Bft) 100,00 %
16.08.2023 04:50 18,8 C 17,8 C 14,4 C 91 % 1019,1 hPa 0,0 l/m 0 min 0 min 0 W/m 0,0 km/h (0 Bft) 97,87 %
16.08.2023 04:52 18,8 C 17,8 C 14,4 C 91 % 1019,1 hPa 0,0 l/m 0 min 0 min 0 W/m 0,0 km/h (0 Bft) 100,00 %
16.08.2023 04:54 18,8 C 17,8 C 14,4 C 91 % 1019,1 hPa 0,0 l/m 0 min 0 min 0 W/m 0,0 km/h (0 Bft) 100,00 %
16.08.2023 04:56 18,8 C 17,8 C 14,4 C 91 % 1019,1 hPa 0,0 l/m 0 min 0 min 0 W/m 0,0 km/h (0 Bft) 100,00 %
16.08.2023 04:58 18,8 C 17,8 C 14,4 C 91 % 1019,1 hPa 0,0 l/m 0 min 0 min 0 W/m 0,0 km/h (0 Bft) 97,87 %
16.08.2023 05:00 18,8 C 17,8 C 14,4 C 91 % 1019,1 hPa 0,0 l/m 0 min 0 min 0 W/m 0,0 km/h (0 Bft) 100,00 %
16.08.2023 05:02 18,8 C 17,8 C 14,4 C 91 % 1019,1 hPa 0,0 l/m 0 min 0 min 0 W/m 0,0 km/h (0 Bft) 97,87 %
16.08.2023 05:04 18,8 C 17,8 C 14,4 C 91 % 1019,2 hPa 0,0 l/m 0 min 0 min 0 W/m 9,7 km/h (2 Bft) 100,00 %
16.08.2023 05:06 18,8 C 17,8 C 14,4 C 91 % 1019,2 hPa 0,0 l/m 0 min 0 min 0 W/m 9,7 km/h (2 Bft) 100,00 %
16.08.2023 05:08 18,8 C 17,8 C 14,4 C 91 % 1019,2 hPa 0,0 l/m 0 min 0 min 0 W/m 9,7 km/h (2 Bft) 100,00 %
16.08.2023 05:10 18,7 C 17,8 C 14,4 C 91 % 1019,2 hPa 0,0 l/m 0 min 0 min 0 W/m 6,4 km/h (2 Bft) 100,00 %
16.08.2023 05:12 18,7 C 17,8 C 14,4 C 91 % 1019,2 hPa 0,0 l/m 0 min 0 min 0 W/m 6,4 km/h (2 Bft) 100,00 %
16.08.2023 05:14 18,7 C 17,8 C 14,4 C 91 % 1019,3 hPa 0,0 l/m 0 min 0 min 0 W/m 6,4 km/h (2 Bft) 97,83 %
16.08.2023 05:16 18,6 C 17,8 C 14,4 C 91 % 1019,3 hPa 0,0 l/m 0 min 0 min 0 W/m 9,7 km/h (2 Bft) 100,00 %
16.08.2023 05:18 18,6 C 17,8 C 14,4 C 91 % 1019,3 hPa 0,0 l/m 0 min 0 min 0 W/m 3,2 km/h (1 Bft) 100,00 %
16.08.2023 05:20 18,6 C 17,8 C 14,4 C 91 % 1019,4 hPa 0,0 l/m 0 min 0 min 0 W/m 3,2 km/h (1 Bft) 97,87 %
16.08.2023 05:22 18,6 C 17,8 C 14,4 C 91 % 1019,4 hPa 0,0 l/m 0 min 0 min 0 W/m 6,4 km/h (2 Bft) 100,00 %
16.08.2023 05:24 18,6 C 17,8 C 14,4 C 91 % 1019,4 hPa 0,0 l/m 0 min 0 min 0 W/m 6,4 km/h (2 Bft) 100,00 %
16.08.2023 05:26 18,6 C 17,2 C 14,4 C 91 % 1019,4 hPa 0,0 l/m 0 min 0 min 0 W/m 9,7 km/h (2 Bft) 97,83 %
16.08.2023 05:28 18,5 C 17,8 C 14,4 C 91 % 1019,4 hPa 0,0 l/m 0 min 0 min 0 W/m 6,4 km/h (2 Bft) 100,00 %
16.08.2023 05:30 18,5 C 17,2 C 13,9 C 91 % 1019,4 hPa 0,0 l/m 0 min 0 min 0 W/m 9,7 km/h (2 Bft) 100,00 %
16.08.2023 05:32 18,4 C 17,8 C 14,4 C 91 % 1019,4 hPa 0,0 l/m 0 min 0 min 0 W/m 9,7 km/h (2 Bft) 97,87 %
16.08.2023 05:34 18,4 C 17,8 C 14,4 C 91 % 1019,5 hPa 0,0 l/m 0 min 0 min 0 W/m 9,7 km/h (2 Bft) 97,87 %
16.08.2023 05:36 18,4 C 17,8 C 14,4 C 91 % 1019,4 hPa 0,0 l/m 0 min 0 min 0 W/m 3,2 km/h (1 Bft) 95,74 %
16.08.2023 05:38 18,4 C 17,8 C 14,4 C 91 % 1019,5 hPa 0,0 l/m 0 min 0 min 0 W/m 9,7 km/h (2 Bft) 97,83 %
16.08.2023 05:40 18,4 C 17,8 C 14,4 C 91 % 1019,4 hPa 0,0 l/m 0 min 0 min 0 W/m 9,7 km/h (2 Bft) 97,87 %
16.08.2023 05:42 18,4 C 17,8 C 14,4 C 91 % 1019,4 hPa 0,0 l/m 0 min 0 min 0 W/m 16,1 km/h (3 Bft) 95,74 %
16.08.2023 05:44 18,4 C 17,8 C 14,4 C 91 % 1019,4 hPa 0,0 l/m 0 min 0 min 0 W/m 9,7 km/h (2 Bft) 97,87 %
16.08.2023 05:46 18,4 C 17,8 C 14,4 C 91 % 1019,4 hPa 0,0 l/m 0 min 0 min 0 W/m 9,7 km/h (2 Bft) 97,87 %
16.08.2023 05:48 18,3 C 17,8 C 14,4 C 91 % 1019,5 hPa 0,0 l/m 0 min 0 min 0 W/m 6,4 km/h (2 Bft) 95,74 %
16.08.2023 05:50 18,3 C 17,8 C 14,4 C 91 % 1019,4 hPa 0,0 l/m 0 min 0 min 0 W/m 6,4 km/h (2 Bft) 95,65 %
16.08.2023 05:52 18,3 C 17,8 C 14,4 C 91 % 1019,4 hPa 0,0 l/m 0 min 0 min 0 W/m 9,7 km/h (2 Bft) 95,74 %
16.08.2023 05:54 18,3 C 17,8 C 14,4 C 91 % 1019,5 hPa 0,0 l/m 0 min 0 min 0 W/m 12,9 km/h (3 Bft) 93,62 %
16.08.2023 05:56 18,3 C 17,8 C 14,4 C 91 % 1019,5 hPa 0,0 l/m 0 min 0 min 0 W/m 6,4 km/h (2 Bft) 90,00 %
16.08.2023 05:58 18,3 C 17,8 C 14,4 C 91 % 1019,5 hPa 0,0 l/m 0 min 0 min 0 W/m 12,9 km/h (3 Bft) 91,49 %
16.08.2023 06:00 18,3 C 17,8 C 14,4 C 91 % 1019,5 hPa 0,0 l/m 0 min 0 min 0 W/m 6,4 km/h (2 Bft) 93,62 %
16.08.2023 06:02 18,3 C 17,8 C 14,4 C 91 % 1019,5 hPa 0,0 l/m 0 min 0 min 0 W/m 9,7 km/h (2 Bft) 91,30 %
16.08.2023 06:04 18,3 C 17,8 C 14,4 C 91 % 1019,5 hPa 0,0 l/m 0 min 0 min 0 W/m 9,7 km/h (2 Bft) 93,62 %
16.08.2023 06:07 18,3 C 17,8 C 14,4 C 91 % 1019,6 hPa 0,0 l/m 0 min 0 min 0 W/m 6,4 km/h (2 Bft) 91,94 %
16.08.2023 06:08 18,3 C 17,8 C 14,4 C 91 % 1019,6 hPa 0,0 l/m 0 min 0 min 0 W/m 6,4 km/h (2 Bft) 100,00 %
16.08.2023 06:12 18,3 C 17,8 C 14,4 C 91 % 1019,7 hPa 0,0 l/m 0 min 0 min 0 W/m 6,4 km/h (2 Bft) 94,00 %
16.08.2023 06:14 18,3 C 17,8 C 14,4 C 91 % 1019,7 hPa 0,0 l/m 0 min 0 min 0 W/m 9,7 km/h (2 Bft) 91,49 %
16.08.2023 06:16 18,3 C 17,8 C 14,4 C 91 % 1019,7 hPa 0,0 l/m 0 min 0 min 0 W/m 9,7 km/h (2 Bft) 93,62 %
16.08.2023 06:18 18,3 C 17,8 C 14,4 C 91 % 1019,7 hPa 0,0 l/m 0 min 0 min 0 W/m 12,9 km/h (3 Bft) 93,62 %
16.08.2023 06:20 18,3 C 17,8 C 14,4 C 91 % 1019,7 hPa 0,0 l/m 0 min 0 min 0 W/m 6,4 km/h (2 Bft) 89,36 %
16.08.2023 06:22 18,3 C 17,8 C 14,4 C 91 % 1019,7 hPa 0,0 l/m 0 min 0 min 0 W/m 9,7 km/h (2 Bft) 93,62 %
16.08.2023 06:24 18,3 C 17,8 C 13,9 C 91 % 1019,7 hPa 0,0 l/m 0 min 0 min 0 W/m 6,4 km/h (2 Bft) 93,48 %
16.08.2023 06:26 18,3 C 17,8 C 14,4 C 91 % 1019,7 hPa 0,0 l/m 0 min 0 min 0 W/m 6,4 km/h (2 Bft) 93,62 %
16.08.2023 06:28 18,3 C 17,8 C 14,4 C 91 % 1019,7 hPa 0,0 l/m 0 min 0 min 0 W/m 9,7 km/h (2 Bft) 97,87 %
16.08.2023 06:30 18,3 C 17,8 C 14,4 C 91 % 1019,7 hPa 0,0 l/m 0 min 0 min 0 W/m 6,4 km/h (2 Bft) 97,87 %
16.08.2023 06:32 18,3 C 17,8 C 14,4 C 91 % 1019,7 hPa 0,0 l/m 0 min 0 min 0 W/m 6,4 km/h (2 Bft) 95,74 %
16.08.2023 06:34 18,3 C 17,8 C 14,4 C 91 % 1019,7 hPa 0,0 l/m 0 min 0 min 0 W/m 6,4 km/h (2 Bft) 97,87 %
16.08.2023 06:36 18,4 C 17,8 C 14,4 C 91 % 1019,7 hPa 0,0 l/m 0 min 0 min 0 W/m 3,2 km/h (1 Bft) 97,83 %
16.08.2023 06:38 18,4 C 17,8 C 14,4 C 92 % 1019,7 hPa 0,0 l/m 0 min 0 min 0 W/m 3,2 km/h (1 Bft) 97,87 %
16.08.2023 06:40 18,4 C 17,8 C 14,4 C 92 % 1019,7 hPa 0,0 l/m 0 min 0 min 0 W/m 6,4 km/h (2 Bft) 97,87 %
16.08.2023 06:42 18,4 C 17,8 C 14,4 C 92 % 1019,6 hPa 0,0 l/m 0 min 0 min 0 W/m 0,0 km/h (0 Bft) 100,00 %
16.08.2023 06:44 18,4 C 17,8 C 14,4 C 92 % 1019,6 hPa 0,0 l/m 0 min 0 min 5 W/m 0,0 km/h (0 Bft) 100,00 %
16.08.2023 06:46 18,4 C 17,8 C 14,4 C 92 % 1019,6 hPa 0,0 l/m 0 min 0 min 5 W/m 3,2 km/h (1 Bft) 97,87 %
16.08.2023 06:48 18,4 C 17,8 C 14,4 C 92 % 1019,6 hPa 0,0 l/m 0 min 0 min 7 W/m 0,0 km/h (0 Bft) 100,00 %
16.08.2023 06:50 18,4 C 17,8 C 14,4 C 92 % 1019,6 hPa 0,0 l/m 0 min 0 min 7 W/m 0,0 km/h (0 Bft) 100,00 %
16.08.2023 06:52 18,4 C 17,8 C 14,4 C 92 % 1019,6 hPa 0,0 l/m 0 min 0 min 7 W/m 0,0 km/h (0 Bft) 100,00 %
16.08.2023 06:54 18,4 C 17,8 C 14,4 C 92 % 1019,7 hPa 0,0 l/m 0 min 0 min 7 W/m 0,0 km/h (0 Bft) 100,00 %
16.08.2023 06:56 18,4 C 17,8 C 14,4 C 92 % 1019,8 hPa 0,0 l/m 0 min 0 min 7 W/m 3,2 km/h (1 Bft) 100,00 %
16.08.2023 06:58 18,4 C 17,8 C 14,4 C 92 % 1019,8 hPa 0,0 l/m 0 min 0 min 8 W/m 0,0 km/h (0 Bft) 100,00 %
16.08.2023 07:00 18,4 C 17,8 C 14,4 C 92 % 1019,8 hPa 0,0 l/m 0 min 0 min 9 W/m 3,2 km/h (1 Bft) 100,00 %
16.08.2023 07:02 18,4 C 17,8 C 14,4 C 92 % 1019,8 hPa 0,0 l/m 0 min 0 min 11 W/m 0,0 km/h (0 Bft) 100,00 %
16.08.2023 07:04 18,5 C 17,8 C 14,4 C 92 % 1019,8 hPa 0,0 l/m 0 min 0 min 12 W/m 0,0 km/h (0 Bft) 100,00 %
16.08.2023 07:06 18,5 C 17,8 C 14,4 C 92 % 1019,8 hPa 0,0 l/m 0 min 0 min 15 W/m 6,4 km/h (2 Bft) 97,87 %
16.08.2023 07:08 18,5 C 17,8 C 14,4 C 92 % 1019,8 hPa 0,0 l/m 0 min 0 min 16 W/m 3,2 km/h (1 Bft) 100,00 %
16.08.2023 07:10 18,6 C 18,3 C 14,4 C 92 % 1019,7 hPa 0,0 l/m 0 min 0 min 16 W/m 3,2 km/h (1 Bft) 100,00 %
16.08.2023 07:12 18,6 C 18,3 C 14,4 C 92 % 1019,7 hPa 0,0 l/m 0 min 0 min 15 W/m 9,7 km/h (2 Bft) 100,00 %
16.08.2023 07:14 18,6 C 18,3 C 14,4 C 92 % 1019,7 hPa 0,0 l/m 0 min 0 min 14 W/m 6,4 km/h (2 Bft) 100,00 %
16.08.2023 07:16 18,6 C 18,3 C 14,4 C 92 % 1019,7 hPa 0,0 l/m 0 min 0 min 14 W/m 3,2 km/h (1 Bft) 97,87 %
16.08.2023 07:18 18,6 C 18,3 C 15,0 C 92 % 1019,7 hPa 0,0 l/m 0 min 0 min 14 W/m 3,2 km/h (1 Bft) 100,00 %
16.08.2023 07:20 18,6 C 18,3 C 15,0 C 91 % 1019,7 hPa 0,0 l/m 0 min 0 min 14 W/m 9,7 km/h (2 Bft) 97,87 %
16.08.2023 07:22 18,7 C 18,3 C 15,0 C 91 % 1019,8 hPa 0,0 l/m 0 min 0 min 15 W/m 9,7 km/h (2 Bft) 100,00 %
16.08.2023 07:24 18,7 C 18,3 C 15,0 C 91 % 1019,7 hPa 0,0 l/m 0 min 0 min 16 W/m 9,7 km/h (2 Bft) 97,87 %
16.08.2023 07:26 18,7 C 18,3 C 15,0 C 91 % 1019,7 hPa 0,0 l/m 0 min 0 min 16 W/m 9,7 km/h (2 Bft) 100,00 %
16.08.2023 07:28 18,7 C 18,3 C 15,0 C 91 % 1019,7 hPa 0,0 l/m 0 min 0 min 18 W/m 12,9 km/h (3 Bft) 100,00 %
16.08.2023 07:30 18,8 C 18,3 C 15,0 C 91 % 1019,7 hPa 0,0 l/m 0 min 0 min 18 W/m 9,7 km/h (2 Bft) 100,00 %
16.08.2023 07:32 18,8 C 18,3 C 15,0 C 90 % 1019,7 hPa 0,0 l/m 0 min 0 min 18 W/m 6,4 km/h (2 Bft) 100,00 %
16.08.2023 07:34 18,8 C 18,3 C 15,0 C 90 % 1019,7 hPa 0,0 l/m 0 min 0 min 18 W/m 12,9 km/h (3 Bft) 100,00 %
16.08.2023 07:36 18,8 C 18,3 C 14,4 C 90 % 1019,7 hPa 0,0 l/m 0 min 0 min 20 W/m 6,4 km/h (2 Bft) 100,00 %
16.08.2023 07:38 18,8 C 18,3 C 15,0 C 90 % 1019,7 hPa 0,0 l/m 0 min 0 min 22 W/m 3,2 km/h (1 Bft) 100,00 %
16.08.2023 07:40 18,8 C 18,3 C 15,0 C 90 % 1019,7 hPa 0,0 l/m 0 min 0 min 25 W/m 12,9 km/h (3 Bft) 100,00 %
16.08.2023 07:42 18,8 C 18,3 C 15,0 C 90 % 1019,7 hPa 0,0 l/m 0 min 0 min 29 W/m 9,7 km/h (2 Bft) 100,00 %
16.08.2023 07:44 18,8 C 18,3 C 14,4 C 90 % 1019,8 hPa 0,0 l/m 0 min 0 min 35 W/m 9,7 km/h (2 Bft) 100,00 %
16.08.2023 07:46 18,8 C 18,3 C 15,0 C 90 % 1019,7 hPa 0,0 l/m 0 min 0 min 43 W/m 3,2 km/h (1 Bft) 100,00 %
16.08.2023 07:48 18,8 C 18,3 C 15,0 C 90 % 1019,7 hPa 0,0 l/m 0 min 0 min 48 W/m 9,7 km/h (2 Bft) 95,74 %
16.08.2023 07:50 18,8 C 18,3 C 15,0 C 90 % 1019,7 hPa 0,0 l/m 0 min 0 min 55 W/m 3,2 km/h (1 Bft) 97,87 %
16.08.2023 07:52 18,9 C 18,3 C 15,0 C 90 % 1019,8 hPa 0,0 l/m 0 min 0 min 61 W/m 3,2 km/h (1 Bft) 97,83 %
16.08.2023 07:54 18,9 C 18,3 C 15,0 C 90 % 1019,8 hPa 0,0 l/m 0 min 0 min 68 W/m 3,2 km/h (1 Bft) 100,00 %
16.08.2023 07:56 18,9 C 18,3 C 15,0 C 90 % 1019,8 hPa 0,0 l/m 0 min 0 min 76 W/m 6,4 km/h (2 Bft) 95,74 %
16.08.2023 07:58 18,9 C 18,9 C 15,0 C 90 % 1019,9 hPa 0,0 l/m 0 min 0 min 79 W/m 6,4 km/h (2 Bft) 98,00 %
16.08.2023 08:00 18,9 C 18,9 C 15,0 C 90 % 1019,9 hPa 0,0 l/m 0 min 0 min 85 W/m 6,4 km/h (2 Bft) 97,87 %
16.08.2023 08:02 19,0 C 18,9 C 15,0 C 91 % 1019,9 hPa 0,0 l/m 0 min 0 min 88 W/m 6,4 km/h (2 Bft) 95,74 %
16.08.2023 08:04 19,0 C 18,9 C 15,0 C 90 % 1019,9 hPa 0,0 l/m 0 min 0 min 84 W/m 9,7 km/h (2 Bft) 97,92 %
16.08.2023 08:06 19,1 C 18,9 C 15,0 C 90 % 1019,9 hPa 0,0 l/m 0 min 0 min 88 W/m 6,4 km/h (2 Bft) 97,87 %
16.08.2023 08:08 19,1 C 18,9 C 15,6 C 90 % 1019,9 hPa 0,0 l/m 0 min 0 min 89 W/m 9,7 km/h (2 Bft) 97,87 %
16.08.2023 08:10 19,1 C 18,9 C 15,6 C 90 % 1020,0 hPa 0,0 l/m 0 min 0 min 83 W/m 9,7 km/h (2 Bft) 97,87 %
16.08.2023 08:12 19,2 C 18,9 C 15,6 C 90 % 1020,0 hPa 0,0 l/m 0 min 0 min 75 W/m 6,4 km/h (2 Bft) 97,87 %
16.08.2023 08:14 19,2 C 18,9 C 15,6 C 90 % 1020,0 hPa 0,0 l/m 0 min 0 min 70 W/m 9,7 km/h (2 Bft) 95,74 %
16.08.2023 08:16 19,2 C 18,9 C 15,6 C 90 % 1020,1 hPa 0,0 l/m 0 min 0 min 73 W/m 9,7 km/h (2 Bft) 97,83 %
16.08.2023 08:18 19,3 C 18,9 C 15,6 C 90 % 1020,0 hPa 0,0 l/m 0 min 0 min 76 W/m 6,4 km/h (2 Bft) 95,74 %
16.08.2023 08:20 19,3 C 18,9 C 15,6 C 90 % 1020,0 hPa 0,0 l/m 0 min 0 min 78 W/m 6,4 km/h (2 Bft) 97,87 %
16.08.2023 08:22 19,3 C 18,9 C 15,6 C 90 % 1020,0 hPa 0,0 l/m 0 min 0 min 79 W/m 6,4 km/h (2 Bft) 97,87 %
16.08.2023 08:24 19,3 C 18,9 C 15,6 C 90 % 1020,0 hPa 0,0 l/m 0 min 0 min 77 W/m 16,1 km/h (3 Bft) 97,87 %
16.08.2023 08:26 19,3 C 18,9 C 15,6 C 90 % 1020,0 hPa 0,0 l/m 0 min 0 min 78 W/m 6,4 km/h (2 Bft) 95,74 %
16.08.2023 08:28 19,4 C 18,9 C 15,6 C 90 % 1020,1 hPa 0,0 l/m 0 min 0 min 85 W/m 6,4 km/h (2 Bft) 95,74 %
16.08.2023 08:30 19,4 C 18,9 C 15,6 C 90 % 1020,1 hPa 0,0 l/m 0 min 0 min 99 W/m 3,2 km/h (1 Bft) 95,74 %
16.08.2023 08:32 19,4 C 19,4 C 15,6 C 90 % 1020,1 hPa 0,0 l/m 0 min 0 min 111 W/m 6,4 km/h (2 Bft) 97,83 %
16.08.2023 08:34 19,4 C 19,4 C 15,6 C 90 % 1020,1 hPa 0,0 l/m 0 min 0 min 112 W/m 3,2 km/h (1 Bft) 97,87 %
16.08.2023 08:36 19,5 C 19,4 C 15,6 C 90 % 1020,1 hPa 0,0 l/m 0 min 0 min 100 W/m 3,2 km/h (1 Bft) 93,62 %
16.08.2023 08:38 19,5 C 19,4 C 15,6 C 90 % 1020,1 hPa 0,0 l/m 0 min 0 min 89 W/m 12,9 km/h (3 Bft) 97,87 %
16.08.2023 08:40 19,5 C 19,4 C 15,6 C 90 % 1020,1 hPa 0,0 l/m 0 min 0 min 90 W/m 16,1 km/h (3 Bft) 97,87 %
16.08.2023 08:42 19,6 C 19,4 C 15,6 C 90 % 1020,1 hPa 0,0 l/m 0 min 0 min 94 W/m 6,4 km/h (2 Bft) 95,74 %
16.08.2023 08:44 19,6 C 19,4 C 15,6 C 90 % 1020,0 hPa 0,0 l/m 0 min 0 min 97 W/m 12,9 km/h (3 Bft) 95,65 %
16.08.2023 08:46 19,6 C 19,4 C 15,6 C 90 % 1020,1 hPa 0,0 l/m 0 min 0 min 102 W/m 0,0 km/h (0 Bft) 93,62 %
16.08.2023 08:48 19,6 C 19,4 C 15,6 C 90 % 1020,1 hPa 0,0 l/m 0 min 0 min 105 W/m 9,7 km/h (2 Bft) 93,62 %
16.08.2023 08:50 19,7 C 19,4 C 15,6 C 90 % 1020,1 hPa 0,0 l/m 0 min 0 min 103 W/m 12,9 km/h (3 Bft) 95,74 %
16.08.2023 08:52 19,7 C 19,4 C 15,6 C 90 % 1020,1 hPa 0,0 l/m 0 min 0 min 98 W/m 3,2 km/h (1 Bft) 95,74 %
16.08.2023 08:54 19,7 C 19,4 C 15,6 C 90 % 1020,1 hPa 0,0 l/m 0 min 0 min 101 W/m 12,9 km/h (3 Bft) 95,74 %
16.08.2023 08:56 19,8 C 20,0 C 15,6 C 90 % 1020,1 hPa 0,0 l/m 0 min 0 min 148 W/m 12,9 km/h (3 Bft) 95,65 %
16.08.2023 08:58 19,8 C 20,0 C 16,1 C 89 % 1020,0 hPa 0,0 l/m 0 min 0 min 152 W/m 9,7 km/h (2 Bft) 95,74 %
16.08.2023 09:00 19,8 C 20,6 C 16,1 C 89 % 1020,0 hPa 0,0 l/m 0 min 0 min 173 W/m 6,4 km/h (2 Bft) 93,62 %
16.08.2023 09:02 19,9 C 22,2 C 16,1 C 89 % 1020,1 hPa 0,0 l/m 2 min 0 min 331 W/m 6,4 km/h (2 Bft) 93,62 %
16.08.2023 09:04 20,0 C 22,2 C 16,1 C 89 % 1020,1 hPa 0,0 l/m 2 min 0 min 345 W/m 9,7 km/h (2 Bft) 94,00 %
16.08.2023 09:06 20,1 C 22,2 C 16,1 C 89 % 1020,1 hPa 0,0 l/m 2 min 0 min 247 W/m 19,3 km/h (3 Bft) 95,83 %
16.08.2023 09:08 20,1 C 21,7 C 16,1 C 89 % 1020,2 hPa 0,0 l/m 0 min 0 min 157 W/m 6,4 km/h (2 Bft) 97,14 %
16.08.2023 09:10 20,2 C 21,1 C 16,7 C 89 % 1020,2 hPa 0,0 l/m 0 min 0 min 162 W/m 6,4 km/h (2 Bft) 97,87 %
16.08.2023 09:12 20,2 C 21,1 C 16,7 C 89 % 1020,2 hPa 0,0 l/m 0 min 0 min 178 W/m 6,4 km/h (2 Bft) 97,83 %
16.08.2023 09:14 20,3 C 21,1 C 16,7 C 88 % 1020,2 hPa 0,0 l/m 2 min 0 min 211 W/m 6,4 km/h (2 Bft) 97,87 %
16.08.2023 09:16 20,3 C 22,8 C 16,7 C 88 % 1020,1 hPa 0,0 l/m 2 min 0 min 298 W/m 9,7 km/h (2 Bft) 97,87 %
16.08.2023 09:18 20,4 C 23,9 C 17,2 C 89 % 1020,1 hPa 0,0 l/m 2 min 0 min 382 W/m 12,9 km/h (3 Bft) 97,87 %
16.08.2023 09:20 20,6 C 23,9 C 17,2 C 89 % 1020,1 hPa 0,0 l/m 2 min 0 min 327 W/m 12,9 km/h (3 Bft) 97,87 %
16.08.2023 09:22 20,7 C 23,9 C 17,2 C 88 % 1020,1 hPa 0,0 l/m 2 min 0 min 304 W/m 19,3 km/h (3 Bft) 97,87 %
16.08.2023 09:24 20,7 C 23,9 C 17,2 C 88 % 1020,0 hPa 0,0 l/m 2 min 0 min 287 W/m 9,7 km/h (2 Bft) 97,87 %
16.08.2023 09:26 20,8 C 22,8 C 17,2 C 87 % 1020,1 hPa 0,0 l/m 0 min 0 min 195 W/m 12,9 km/h (3 Bft) 97,83 %
16.08.2023 09:28 20,8 C 22,8 C 17,2 C 87 % 1020,1 hPa 0,0 l/m 0 min 0 min 190 W/m 6,4 km/h (2 Bft) 95,74 %
16.08.2023 09:30 20,9 C 22,8 C 17,2 C 87 % 1020,2 hPa 0,0 l/m 2 min 0 min 240 W/m 22,5 km/h (4 Bft) 97,87 %
16.08.2023 09:32 20,9 C 22,8 C 17,2 C 86 % 1020,2 hPa 0,0 l/m 2 min 0 min 336 W/m 19,3 km/h (3 Bft) 95,74 %
16.08.2023 09:34 20,9 C 22,2 C 17,2 C 86 % 1020,2 hPa 0,0 l/m 2 min 0 min 385 W/m 19,3 km/h (3 Bft) 97,87 %
16.08.2023 09:36 20,9 C 22,8 C 17,2 C 86 % 1020,3 hPa 0,0 l/m 2 min 0 min 323 W/m 6,4 km/h (2 Bft) 93,62 %
16.08.2023 09:38 21,0 C 22,8 C 17,2 C 86 % 1020,3 hPa 0,0 l/m 2 min 0 min 341 W/m 6,4 km/h (2 Bft) 100,00 %
16.08.2023 09:40 21,1 C 22,8 C 17,2 C 86 % 1020,3 hPa 0,0 l/m 2 min 0 min 359 W/m 16,1 km/h (3 Bft) 100,00 %
16.08.2023 09:42 21,1 C 23,3 C 17,8 C 86 % 1020,3 hPa 0,0 l/m 2 min 0 min 437 W/m 6,4 km/h (2 Bft) 100,00 %
16.08.2023 09:44 21,2 C 22,8 C 17,8 C 86 % 1020,2 hPa 0,0 l/m 2 min 0 min 396 W/m 16,1 km/h (3 Bft) 100,00 %
16.08.2023 09:46 21,3 C 22,8 C 17,8 C 86 % 1020,3 hPa 0,0 l/m 2 min 0 min 332 W/m 6,4 km/h (2 Bft) 97,87 %
16.08.2023 09:48 21,3 C 22,8 C 17,8 C 86 % 1020,3 hPa 0,0 l/m 0 min 0 min 234 W/m 12,9 km/h (3 Bft) 100,00 %
16.08.2023 09:50 21,4 C 22,8 C 17,8 C 86 % 1020,3 hPa 0,0 l/m 2 min 0 min 261 W/m 6,4 km/h (2 Bft) 97,87 %
16.08.2023 09:52 21,4 C 22,2 C 17,8 C 86 % 1020,4 hPa 0,0 l/m 0 min 0 min 208 W/m 12,9 km/h (3 Bft) 97,83 %
16.08.2023 09:54 21,5 C 22,2 C 17,8 C 85 % 1020,4 hPa 0,0 l/m 0 min 0 min 176 W/m 9,7 km/h (2 Bft) 97,87 %
16.08.2023 09:56 21,5 C 21,1 C 17,2 C 85 % 1020,5 hPa 0,0 l/m 0 min 0 min 133 W/m 6,4 km/h (2 Bft) 100,00 %
16.08.2023 09:58 21,4 C 21,1 C 17,2 C 85 % 1020,5 hPa 0,0 l/m 0 min 0 min 109 W/m 9,7 km/h (2 Bft) 97,87 %
16.08.2023 10:00 21,4 C 21,1 C 17,2 C 85 % 1020,5 hPa 0,0 l/m 0 min 0 min 125 W/m 9,7 km/h (2 Bft) 97,87 %
16.08.2023 10:02 21,4 C 21,1 C 17,2 C 85 % 1020,6 hPa 0,0 l/m 0 min 0 min 147 W/m 6,4 km/h (2 Bft) 97,87 %
16.08.2023 10:04 21,3 C 21,1 C 16,7 C 85 % 1020,7 hPa 0,0 l/m 0 min 0 min 147 W/m 9,7 km/h (2 Bft) 95,83 %
16.08.2023 10:06 21,3 C 20,6 C 16,7 C 86 % 1020,6 hPa 0,0 l/m 0 min 0 min 126 W/m 12,9 km/h (3 Bft) 98,31 %
16.08.2023 10:08 21,3 C 20,6 C 16,7 C 86 % 1020,6 hPa 0,0 l/m 0 min 0 min 107 W/m 6,4 km/h (2 Bft) 100,00 %
16.08.2023 10:10 21,2 C 20,6 C 16,7 C 86 % 1020,7 hPa 0,0 l/m 0 min 0 min 93 W/m 9,7 km/h (2 Bft) 97,87 %
16.08.2023 10:12 21,2 C 20,6 C 16,7 C 86 % 1020,6 hPa 0,0 l/m 0 min 0 min 91 W/m 9,7 km/h (2 Bft) 97,87 %
16.08.2023 10:14 21,2 C 20,6 C 16,7 C 86 % 1020,7 hPa 0,0 l/m 0 min 0 min 92 W/m 9,7 km/h (2 Bft) 95,74 %
16.08.2023 10:16 21,1 C 20,6 C 16,7 C 86 % 1020,7 hPa 0,0 l/m 0 min 0 min 96 W/m 9,7 km/h (2 Bft) 95,65 %
16.08.2023 10:18 21,1 C 20,6 C 16,7 C 86 % 1020,7 hPa 0,0 l/m 0 min 0 min 106 W/m 6,4 km/h (2 Bft) 97,87 %
16.08.2023 10:20 21,1 C 20,6 C 16,7 C 87 % 1020,8 hPa 0,0 l/m 0 min 0 min 111 W/m 6,4 km/h (2 Bft) 95,74 %
16.08.2023 10:22 21,1 C 20,6 C 16,7 C 87 % 1020,7 hPa 0,0 l/m 0 min 0 min 109 W/m 6,4 km/h (2 Bft) 97,87 %
16.08.2023 10:24 21,1 C 20,6 C 16,7 C 87 % 1020,8 hPa 0,0 l/m 0 min 0 min 108 W/m 6,4 km/h (2 Bft) 97,87 %
16.08.2023 10:26 21,0 C 20,6 C 16,7 C 87 % 1020,7 hPa 0,0 l/m 0 min 0 min 113 W/m 6,4 km/h (2 Bft) 97,87 %
16.08.2023 10:28 21,0 C 20,6 C 16,7 C 87 % 1020,7 hPa 0,0 l/m 0 min 0 min 125 W/m 6,4 km/h (2 Bft) 100,00 %
16.08.2023 10:30 21,0 C 20,6 C 16,7 C 87 % 1020,7 hPa 0,0 l/m 0 min 0 min 136 W/m 9,7 km/h (2 Bft) 97,83 %
16.08.2023 10:32 21,0 C 20,6 C 16,7 C 87 % 1020,7 hPa 0,0 l/m 0 min 0 min 149 W/m 6,4 km/h (2 Bft) 100,00 %
16.08.2023 10:34 21,0 C 20,6 C 16,7 C 87 % 1020,7 hPa 0,0 l/m 0 min 0 min 163 W/m 6,4 km/h (2 Bft) 100,00 %
16.08.2023 10:36 21,0 C 20,6 C 17,2 C 87 % 1020,7 hPa 0,0 l/m 0 min 0 min 182 W/m 12,9 km/h (3 Bft) 100,00 %
16.08.2023 10:38 21,0 C 21,1 C 17,2 C 87 % 1020,7 hPa 0,0 l/m 0 min 0 min 203 W/m 3,2 km/h (1 Bft) 100,00 %
16.08.2023 10:40 21,1 C 21,1 C 17,2 C 87 % 1020,7 hPa 0,0 l/m 0 min 0 min 182 W/m 6,4 km/h (2 Bft) 100,00 %
16.08.2023 10:42 21,1 C 21,1 C 17,2 C 87 % 1020,6 hPa 0,0 l/m 0 min 0 min 148 W/m 9,7 km/h (2 Bft) 100,00 %
16.08.2023 10:44 21,1 C 21,1 C 17,2 C 87 % 1020,6 hPa 0,0 l/m 0 min 0 min 144 W/m 6,4 km/h (2 Bft) 100,00 %
16.08.2023 10:46 21,1 C 21,1 C 17,2 C 87 % 1020,6 hPa 0,0 l/m 0 min 0 min 163 W/m 3,2 km/h (1 Bft) 100,00 %
16.08.2023 10:48 21,1 C 21,1 C 17,2 C 87 % 1020,6 hPa 0,0 l/m 0 min 0 min 238 W/m 9,7 km/h (2 Bft) 100,00 %
16.08.2023 10:50 21,1 C 21,1 C 17,2 C 87 % 1020,6 hPa 0,0 l/m 2 min 0 min 411 W/m 9,7 km/h (2 Bft) 100,00 %
16.08.2023 10:52 21,2 C 21,7 C 17,2 C 87 % 1020,6 hPa 0,0 l/m 0 min 0 min 302 W/m 6,4 km/h (2 Bft) 100,00 %
16.08.2023 10:54 21,2 C 21,7 C 17,2 C 87 % 1020,6 hPa 0,0 l/m 0 min 0 min 206 W/m 9,7 km/h (2 Bft) 100,00 %
16.08.2023 10:56 21,2 C 21,7 C 17,2 C 86 % 1020,6 hPa 0,0 l/m 0 min 0 min 222 W/m 6,4 km/h (2 Bft) 100,00 %
16.08.2023 10:58 21,2 C 21,7 C 17,8 C 86 % 1020,6 hPa 0,0 l/m 0 min 0 min 238 W/m 6,4 km/h (2 Bft) 100,00 %
16.08.2023 11:00 21,3 C 21,7 C 17,8 C 86 % 1020,7 hPa 0,0 l/m 0 min 0 min 245 W/m 6,4 km/h (2 Bft) 97,87 %
16.08.2023 11:02 21,3 C 21,7 C 17,8 C 86 % 1020,7 hPa 0,0 l/m 0 min 0 min 269 W/m 9,7 km/h (2 Bft) 97,87 %
16.08.2023 11:04 21,3 C 22,2 C 17,8 C 86 % 1020,7 hPa 0,0 l/m 0 min 0 min 286 W/m 6,4 km/h (2 Bft) 97,96 %
16.08.2023 11:06 21,4 C 22,2 C 17,8 C 86 % 1020,7 hPa 0,0 l/m 0 min 0 min 287 W/m 9,7 km/h (2 Bft) 96,55 %
16.08.2023 11:08 21,5 C 22,2 C 17,8 C 86 % 1020,7 hPa 0,0 l/m 0 min 0 min 302 W/m 6,4 km/h (2 Bft) 97,14 %
16.08.2023 11:10 21,6 C 22,2 C 18,3 C 86 % 1020,8 hPa 0,0 l/m 2 min 0 min 328 W/m 6,4 km/h (2 Bft) 97,87 %
16.08.2023 11:12 21,6 C 22,8 C 18,3 C 86 % 1020,8 hPa 0,0 l/m 2 min 0 min 354 W/m 6,4 km/h (2 Bft) 95,74 %
16.08.2023 11:14 21,7 C 23,3 C 18,3 C 86 % 1020,8 hPa 0,0 l/m 2 min 0 min 465 W/m 3,2 km/h (1 Bft) 97,87 %
16.08.2023 11:16 21,8 C 23,3 C 18,9 C 85 % 1020,8 hPa 0,0 l/m 2 min 0 min 393 W/m 12,9 km/h (3 Bft) 97,87 %
16.08.2023 11:18 21,9 C 23,3 C 18,9 C 85 % 1020,8 hPa 0,0 l/m 2 min 0 min 361 W/m 6,4 km/h (2 Bft) 95,74 %
16.08.2023 11:20 22,0 C 23,3 C 18,9 C 85 % 1020,8 hPa 0,0 l/m 0 min 0 min 324 W/m 9,7 km/h (2 Bft) 97,83 %
16.08.2023 11:22 22,1 C 23,3 C 18,9 C 85 % 1020,8 hPa 0,0 l/m 0 min 0 min 324 W/m 6,4 km/h (2 Bft) 97,87 %
16.08.2023 11:24 22,1 C 23,3 C 18,9 C 85 % 1020,8 hPa 0,0 l/m 2 min 0 min 344 W/m 6,4 km/h (2 Bft) 95,74 %
16.08.2023 11:26 22,2 C 23,3 C 18,9 C 84 % 1020,8 hPa 0,0 l/m 2 min 0 min 408 W/m 6,4 km/h (2 Bft) 97,87 %
16.08.2023 11:28 22,2 C 23,3 C 18,9 C 84 % 1020,7 hPa 0,0 l/m 2 min 0 min 375 W/m 9,7 km/h (2 Bft) 97,87 %
16.08.2023 11:30 22,2 C 23,3 C 18,9 C 84 % 1020,7 hPa 0,0 l/m 0 min 0 min 337 W/m 6,4 km/h (2 Bft) 97,87 %
16.08.2023 11:32 22,3 C 23,3 C 18,9 C 84 % 1020,7 hPa 0,0 l/m 0 min 0 min 325 W/m 6,4 km/h (2 Bft) 97,87 %
16.08.2023 11:34 22,4 C 23,3 C 18,9 C 84 % 1020,8 hPa 0,0 l/m 2 min 0 min 348 W/m 6,4 km/h (2 Bft) 95,65 %
16.08.2023 11:36 22,4 C 23,3 C 18,9 C 84 % 1020,8 hPa 0,0 l/m 0 min 0 min 313 W/m 6,4 km/h (2 Bft) 97,87 %
16.08.2023 11:38 22,4 C 23,3 C 18,9 C 83 % 1020,7 hPa 0,0 l/m 0 min 0 min 309 W/m 12,9 km/h (3 Bft) 97,87 %
16.08.2023 11:40 22,4 C 23,3 C 18,9 C 83 % 1020,7 hPa 0,0 l/m 0 min 0 min 267 W/m 6,4 km/h (2 Bft) 97,87 %
16.08.2023 11:42 22,5 C 23,3 C 18,3 C 83 % 1020,7 hPa 0,0 l/m 0 min 0 min 240 W/m 6,4 km/h (2 Bft) 95,74 %
16.08.2023 11:44 22,4 C 22,8 C 18,3 C 83 % 1020,6 hPa 0,0 l/m 0 min 0 min 244 W/m 12,9 km/h (3 Bft) 97,87 %
16.08.2023 11:46 22,4 C 22,8 C 18,3 C 83 % 1020,6 hPa 0,0 l/m 0 min 0 min 243 W/m 9,7 km/h (2 Bft) 100,00 %
16.08.2023 11:48 22,4 C 22,8 C 18,3 C 83 % 1020,6 hPa 0,0 l/m 0 min 0 min 279 W/m 12,9 km/h (3 Bft) 100,00 %
16.08.2023 11:50 22,4 C 22,8 C 18,3 C 83 % 1020,6 hPa 0,0 l/m 0 min 0 min 286 W/m 9,7 km/h (2 Bft) 97,87 %
16.08.2023 11:52 22,4 C 22,8 C 18,9 C 83 % 1020,6 hPa 0,0 l/m 2 min 0 min 364 W/m 19,3 km/h (3 Bft) 97,96 %
16.08.2023 11:54 22,4 C 23,3 C 18,9 C 83 % 1020,6 hPa 0,0 l/m 2 min 0 min 389 W/m 9,7 km/h (2 Bft) 95,74 %
16.08.2023 11:56 22,4 C 23,3 C 18,9 C 83 % 1020,7 hPa 0,0 l/m 0 min 0 min 311 W/m 6,4 km/h (2 Bft) 97,87 %
16.08.2023 11:58 22,4 C 23,3 C 18,9 C 82 % 1020,7 hPa 0,0 l/m 0 min 0 min 265 W/m 16,1 km/h (3 Bft) 97,83 %
16.08.2023 12:00 22,4 C 23,3 C 18,9 C 82 % 1020,7 hPa 0,0 l/m 0 min 0 min 290 W/m 9,7 km/h (2 Bft) 95,74 %
16.08.2023 12:02 22,4 C 23,3 C 18,9 C 82 % 1020,7 hPa 0,0 l/m 0 min 0 min 291 W/m 6,4 km/h (2 Bft) 93,62 %
16.08.2023 12:09 22,4 C 22,8 C 18,3 C 82 % 1020,6 hPa 0,0 l/m 0 min 0 min 200 W/m 9,7 km/h (2 Bft) 96,55 %
16.08.2023 12:10 22,4 C 22,2 C 18,3 C 82 % 1020,6 hPa 0,0 l/m 0 min 0 min 192 W/m 16,1 km/h (3 Bft) 100,00 %
16.08.2023 12:12 22,3 C 22,2 C 18,3 C 82 % 1020,6 hPa 0,0 l/m 0 min 0 min 192 W/m 12,9 km/h (3 Bft) 95,65 %
16.08.2023 12:14 22,4 C 22,2 C 18,3 C 82 % 1020,6 hPa 0,0 l/m 0 min 0 min 191 W/m 6,4 km/h (2 Bft) 93,62 %
16.08.2023 12:16 22,3 C 22,2 C 18,3 C 82 % 1020,5 hPa 0,0 l/m 0 min 0 min 193 W/m 12,9 km/h (3 Bft) 93,62 %
16.08.2023 12:18 22,3 C 22,2 C 18,3 C 82 % 1020,5 hPa 0,0 l/m 0 min 0 min 187 W/m 16,1 km/h (3 Bft) 95,74 %
16.08.2023 12:20 22,3 C 22,2 C 18,3 C 82 % 1020,5 hPa 0,0 l/m 0 min 0 min 172 W/m 6,4 km/h (2 Bft) 95,74 %
16.08.2023 12:22 22,3 C 21,7 C 17,8 C 82 % 1020,6 hPa 0,0 l/m 0 min 0 min 156 W/m 6,4 km/h (2 Bft) 97,87 %
16.08.2023 12:24 22,3 C 22,2 C 17,8 C 82 % 1020,7 hPa 0,0 l/m 0 min 0 min 146 W/m 6,4 km/h (2 Bft) 97,87 %
16.08.2023 12:26 22,2 C 22,2 C 17,8 C 82 % 1020,6 hPa 0,0 l/m 0 min 0 min 140 W/m 9,7 km/h (2 Bft) 97,83 %
16.08.2023 12:28 22,2 C 22,2 C 17,8 C 83 % 1020,6 hPa 0,0 l/m 0 min 0 min 139 W/m 9,7 km/h (2 Bft) 97,87 %
16.08.2023 12:30 22,2 C 22,2 C 17,8 C 83 % 1020,6 hPa 0,0 l/m 0 min 0 min 140 W/m 9,7 km/h (2 Bft) 97,87 %
16.08.2023 12:32 22,2 C 22,2 C 17,8 C 83 % 1020,6 hPa 0,0 l/m 0 min 0 min 147 W/m 9,7 km/h (2 Bft) 97,87 %
16.08.2023 12:34 22,2 C 22,2 C 17,8 C 83 % 1020,6 hPa 0,0 l/m 0 min 0 min 155 W/m 9,7 km/h (2 Bft) 97,87 %
16.08.2023 12:36 22,2 C 22,2 C 17,8 C 84 % 1020,7 hPa 0,0 l/m 0 min 0 min 152 W/m 6,4 km/h (2 Bft) 97,87 %
16.08.2023 12:38 22,2 C 22,2 C 17,8 C 84 % 1020,7 hPa 0,0 l/m 0 min 0 min 138 W/m 6,4 km/h (2 Bft) 97,83 %
16.08.2023 12:40 22,2 C 21,7 C 17,8 C 84 % 1020,6 hPa 0,0 l/m 0 min 0 min 125 W/m 3,2 km/h (1 Bft) 97,87 %
16.08.2023 12:42 22,2 C 21,7 C 17,8 C 84 % 1020,7 hPa 0,0 l/m 0 min 0 min 120 W/m 6,4 km/h (2 Bft) 97,87 %
16.08.2023 12:44 22,1 C 21,7 C 17,8 C 84 % 1020,7 hPa 0,0 l/m 0 min 0 min 117 W/m 6,4 km/h (2 Bft) 97,87 %
16.08.2023 12:46 22,1 C 21,7 C 17,8 C 84 % 1020,7 hPa 0,0 l/m 0 min 0 min 109 W/m 3,2 km/h (1 Bft) 97,87 %
16.08.2023 12:48 22,1 C 21,7 C 17,8 C 84 % 1020,7 hPa 0,0 l/m 0 min 0 min 95 W/m 12,9 km/h (3 Bft) 95,74 %
16.08.2023 12:50 22,1 C 21,1 C 17,8 C 84 % 1020,7 hPa 0,0 l/m 0 min 0 min 88 W/m 6,4 km/h (2 Bft) 100,00 %
16.08.2023 12:52 22,0 C 21,1 C 17,2 C 84 % 1020,7 hPa 0,0 l/m 0 min 0 min 86 W/m 3,2 km/h (1 Bft) 97,87 %
16.08.2023 12:54 21,9 C 21,1 C 17,2 C 84 % 1020,7 hPa 0,0 l/m 0 min 0 min 86 W/m 12,9 km/h (3 Bft) 97,87 %
16.08.2023 12:56 21,9 C 21,1 C 17,2 C 84 % 1020,7 hPa 0,0 l/m 0 min 0 min 89 W/m 6,4 km/h (2 Bft) 95,74 %
16.08.2023 12:58 21,9 C 21,1 C 17,2 C 84 % 1020,6 hPa 0,0 l/m 0 min 0 min 93 W/m 3,2 km/h (1 Bft) 100,00 %
16.08.2023 13:00 21,8 C 21,1 C 17,2 C 84 % 1020,7 hPa 0,0 l/m 0 min 0 min 99 W/m 6,4 km/h (2 Bft) 100,00 %
16.08.2023 13:02 21,8 C 21,1 C 17,2 C 84 % 1020,7 hPa 0,0 l/m 0 min 0 min 104 W/m 6,4 km/h (2 Bft) 95,74 %
16.08.2023 13:04 21,8 C 21,1 C 17,2 C 84 % 1020,8 hPa 0,0 l/m 0 min 0 min 110 W/m 6,4 km/h (2 Bft) 100,00 %
16.08.2023 13:06 21,7 C 21,1 C 17,2 C 84 % 1020,7 hPa 0,0 l/m 0 min 0 min 114 W/m 9,7 km/h (2 Bft) 100,00 %
16.08.2023 13:08 21,7 C 21,1 C 17,2 C 84 % 1020,8 hPa 0,0 l/m 0 min 0 min 118 W/m 6,4 km/h (2 Bft) 100,00 %
16.08.2023 13:10 21,7 C 21,1 C 17,2 C 84 % 1020,8 hPa 0,0 l/m 0 min 0 min 125 W/m 6,4 km/h (2 Bft) 100,00 %
16.08.2023 13:12 21,7 C 21,1 C 17,2 C 85 % 1020,7 hPa 0,0 l/m 0 min 0 min 139 W/m 6,4 km/h (2 Bft) 100,00 %
16.08.2023 13:14 21,6 C 21,1 C 17,2 C 85 % 1020,7 hPa 0,0 l/m 0 min 0 min 148 W/m 6,4 km/h (2 Bft) 100,00 %
16.08.2023 13:16 21,6 C 21,7 C 17,2 C 85 % 1020,7 hPa 0,0 l/m 0 min 0 min 152 W/m 6,4 km/h (2 Bft) 100,00 %
16.08.2023 13:18 21,7 C 21,7 C 17,2 C 85 % 1020,8 hPa 0,0 l/m 0 min 0 min 151 W/m 6,4 km/h (2 Bft) 97,87 %
16.08.2023 13:20 21,7 C 21,7 C 17,2 C 85 % 1020,8 hPa 0,0 l/m 0 min 0 min 149 W/m 3,2 km/h (1 Bft) 100,00 %
16.08.2023 13:22 21,7 C 21,7 C 17,8 C 85 % 1020,7 hPa 0,0 l/m 0 min 0 min 144 W/m 3,2 km/h (1 Bft) 95,74 %
16.08.2023 13:24 21,7 C 21,7 C 17,8 C 85 % 1020,7 hPa 0,0 l/m 0 min 0 min 137 W/m 3,2 km/h (1 Bft) 100,00 %
16.08.2023 13:26 21,7 C 21,7 C 17,8 C 85 % 1020,7 hPa 0,0 l/m 0 min 0 min 136 W/m 3,2 km/h (1 Bft) 97,87 %
16.08.2023 13:28 21,7 C 21,7 C 17,8 C 85 % 1020,6 hPa 0,0 l/m 0 min 0 min 149 W/m 12,9 km/h (3 Bft) 97,83 %
16.08.2023 13:30 21,7 C 21,7 C 17,8 C 85 % 1020,6 hPa 0,0 l/m 0 min 0 min 175 W/m 12,9 km/h (3 Bft) 100,00 %
16.08.2023 13:32 21,7 C 21,7 C 17,8 C 85 % 1020,6 hPa 0,0 l/m 0 min 0 min 201 W/m 9,7 km/h (2 Bft) 97,87 %
16.08.2023 13:34 21,8 C 22,2 C 17,8 C 85 % 1020,7 hPa 0,0 l/m 0 min 0 min 235 W/m 9,7 km/h (2 Bft) 97,87 %
16.08.2023 13:36 21,8 C 22,2 C 17,8 C 85 % 1020,6 hPa 0,0 l/m 0 min 0 min 276 W/m 9,7 km/h (2 Bft) 97,87 %
16.08.2023 13:38 21,8 C 22,2 C 17,8 C 85 % 1020,6 hPa 0,0 l/m 0 min 0 min 317 W/m 19,3 km/h (3 Bft) 97,87 %
16.08.2023 13:40 21,9 C 22,8 C 18,3 C 85 % 1020,6 hPa 0,0 l/m 2 min 0 min 502 W/m 19,3 km/h (3 Bft) 97,83 %
16.08.2023 13:42 21,9 C 22,8 C 18,3 C 85 % 1020,6 hPa 0,0 l/m 2 min 0 min 485 W/m 9,7 km/h (2 Bft) 95,74 %
16.08.2023 13:44 22,1 C 23,3 C 18,9 C 85 % 1020,6 hPa 0,0 l/m 2 min 0 min 557 W/m 12,9 km/h (3 Bft) 97,87 %
16.08.2023 13:46 22,2 C 23,9 C 18,9 C 86 % 1020,6 hPa 0,0 l/m 2 min 0 min 553 W/m 12,9 km/h (3 Bft) 97,87 %
16.08.2023 13:48 22,3 C 23,9 C 18,9 C 85 % 1020,6 hPa 0,0 l/m 2 min 0 min 559 W/m 16,1 km/h (3 Bft) 95,74 %
16.08.2023 13:50 22,4 C 23,9 C 18,9 C 84 % 1020,6 hPa 0,0 l/m 2 min 0 min 634 W/m 19,3 km/h (3 Bft) 97,87 %
16.08.2023 13:52 22,5 C 25,0 C 19,4 C 85 % 1020,5 hPa 0,0 l/m 2 min 0 min 729 W/m 16,1 km/h (3 Bft) 95,65 %
16.08.2023 13:54 22,7 C 26,7 C 19,4 C 85 % 1020,4 hPa 0,0 l/m 2 min 0 min 848 W/m 12,9 km/h (3 Bft) 95,74 %
16.08.2023 13:56 22,9 C 27,2 C 19,4 C 84 % 1020,5 hPa 0,0 l/m 2 min 0 min 839 W/m 9,7 km/h (2 Bft) 95,74 %
16.08.2023 13:58 23,1 C 27,2 C 19,4 C 84 % 1020,4 hPa 0,0 l/m 2 min 0 min 791 W/m 22,5 km/h (4 Bft) 93,62 %
16.08.2023 14:00 23,2 C 27,2 C 19,4 C 83 % 1020,5 hPa 0,0 l/m 2 min 0 min 747 W/m 16,1 km/h (3 Bft) 95,74 %
16.08.2023 14:02 23,2 C 27,8 C 19,4 C 83 % 1020,4 hPa 0,0 l/m 2 min 0 min 842 W/m 19,3 km/h (3 Bft) 93,62 %
16.08.2023 14:04 23,4 C 28,3 C 19,4 C 83 % 1020,4 hPa 0,0 l/m 2 min 0 min 858 W/m 22,5 km/h (4 Bft) 95,74 %
16.08.2023 14:06 23,5 C 27,2 C 20,0 C 82 % 1020,4 hPa 0,0 l/m 2 min 0 min 853 W/m 9,7 km/h (2 Bft) 93,48 %
16.08.2023 14:08 23,6 C 26,7 C 20,0 C 82 % 1020,4 hPa 0,0 l/m 2 min 0 min 687 W/m 25,7 km/h (4 Bft) 95,74 %
16.08.2023 14:10 23,6 C 26,7 C 19,4 C 82 % 1020,4 hPa 0,0 l/m 2 min 0 min 724 W/m 16,1 km/h (3 Bft) 95,74 %
16.08.2023 14:12 23,7 C 27,2 C 20,0 C 82 % 1020,4 hPa 0,0 l/m 2 min 0 min 688 W/m 12,9 km/h (3 Bft) 95,74 %
16.08.2023 14:14 23,7 C 27,2 C 20,0 C 82 % 1020,5 hPa 0,0 l/m 2 min 0 min 735 W/m 6,4 km/h (2 Bft) 95,74 %
16.08.2023 14:16 23,8 C 26,7 C 20,0 C 81 % 1020,4 hPa 0,0 l/m 2 min 0 min 489 W/m 9,7 km/h (2 Bft) 97,87 %
16.08.2023 14:18 23,8 C 26,1 C 20,0 C 82 % 1020,4 hPa 0,0 l/m 2 min 0 min 489 W/m 16,1 km/h (3 Bft) 95,65 %
16.08.2023 14:20 23,9 C 26,1 C 20,0 C 81 % 1020,4 hPa 0,0 l/m 2 min 0 min 489 W/m 12,9 km/h (3 Bft) 97,87 %
16.08.2023 14:22 23,9 C 25,0 C 20,0 C 81 % 1020,4 hPa 0,0 l/m 2 min 0 min 466 W/m 25,7 km/h (4 Bft) 97,87 %
16.08.2023 14:24 23,9 C 25,6 C 20,0 C 81 % 1020,4 hPa 0,0 l/m 2 min 0 min 459 W/m 12,9 km/h (3 Bft) 97,87 %
16.08.2023 14:26 23,9 C 25,0 C 20,0 C 81 % 1020,4 hPa 0,0 l/m 2 min 0 min 481 W/m 16,1 km/h (3 Bft) 100,00 %
16.08.2023 14:28 23,9 C 26,1 C 20,0 C 81 % 1020,3 hPa 0,0 l/m 2 min 0 min 494 W/m 12,9 km/h (3 Bft) 100,00 %
16.08.2023 14:30 23,8 C 26,1 C 20,0 C 81 % 1020,3 hPa 0,0 l/m 2 min 0 min 830 W/m 16,1 km/h (3 Bft) 97,83 %
16.08.2023 14:32 23,8 C 25,6 C 20,0 C 81 % 1020,3 hPa 0,0 l/m 2 min 0 min 617 W/m 12,9 km/h (3 Bft) 100,00 %
16.08.2023 14:34 23,8 C 26,7 C 20,0 C 81 % 1020,3 hPa 0,0 l/m 2 min 0 min 435 W/m 12,9 km/h (3 Bft) 100,00 %
16.08.2023 14:36 23,9 C 27,8 C 20,0 C 81 % 1020,2 hPa 0,0 l/m 2 min 0 min 780 W/m 9,7 km/h (2 Bft) 100,00 %
16.08.2023 14:38 23,9 C 27,8 C 20,0 C 81 % 1020,3 hPa 0,0 l/m 2 min 0 min 810 W/m 12,9 km/h (3 Bft) 100,00 %
16.08.2023 14:40 24,0 C 28,9 C 20,0 C 81 % 1020,3 hPa 0,0 l/m 2 min 0 min 787 W/m 12,9 km/h (3 Bft) 100,00 %
16.08.2023 14:42 24,1 C 27,8 C 20,0 C 81 % 1020,2 hPa 0,0 l/m 2 min 0 min 770 W/m 9,7 km/h (2 Bft) 100,00 %
16.08.2023 14:44 24,1 C 27,2 C 20,0 C 81 % 1020,2 hPa 0,0 l/m 0 min 0 min 362 W/m 16,1 km/h (3 Bft) 100,00 %
16.08.2023 14:46 24,1 C 26,1 C 20,0 C 81 % 1020,2 hPa 0,0 l/m 2 min 0 min 399 W/m 19,3 km/h (3 Bft) 100,00 %
16.08.2023 14:48 24,1 C 26,1 C 20,0 C 81 % 1020,2 hPa 0,0 l/m 2 min 0 min 395 W/m 9,7 km/h (2 Bft) 100,00 %
16.08.2023 14:50 24,1 C 27,2 C 20,0 C 81 % 1020,2 hPa 0,0 l/m 2 min 0 min 437 W/m 12,9 km/h (3 Bft) 100,00 %
16.08.2023 14:52 24,1 C 27,2 C 20,0 C 81 % 1020,2 hPa 0,0 l/m 2 min 0 min 784 W/m 9,7 km/h (2 Bft) 100,00 %
16.08.2023 14:54 24,2 C 26,1 C 20,0 C 80 % 1020,2 hPa 0,0 l/m 2 min 0 min 444 W/m 12,9 km/h (3 Bft) 100,00 %
16.08.2023 14:56 24,2 C 25,0 C 20,0 C 80 % 1020,2 hPa 0,0 l/m 0 min 0 min 297 W/m 12,9 km/h (3 Bft) 95,65 %
16.08.2023 14:58 24,1 C 25,0 C 20,0 C 80 % 1020,2 hPa 0,0 l/m 0 min 0 min 272 W/m 9,7 km/h (2 Bft) 100,00 %
16.08.2023 15:00 24,1 C 24,4 C 19,4 C 80 % 1020,1 hPa 0,0 l/m 0 min 0 min 218 W/m 9,7 km/h (2 Bft) 100,00 %
16.08.2023 15:02 24,0 C 23,9 C 19,4 C 81 % 1020,2 hPa 0,0 l/m 0 min 0 min 200 W/m 9,7 km/h (2 Bft) 100,00 %
16.08.2023 15:04 23,9 C 23,9 C 19,4 C 81 % 1020,2 hPa 0,0 l/m 0 min 0 min 189 W/m 6,4 km/h (2 Bft) 97,87 %
16.08.2023 15:06 23,8 C 23,3 C 19,4 C 81 % 1020,2 hPa 0,0 l/m 0 min 0 min 189 W/m 16,1 km/h (3 Bft) 100,00 %
16.08.2023 15:08 23,8 C 23,3 C 18,9 C 81 % 1020,2 hPa 0,0 l/m 0 min 0 min 222 W/m 16,1 km/h (3 Bft) 100,00 %
16.08.2023 15:10 23,7 C 23,3 C 18,9 C 81 % 1020,2 hPa 0,0 l/m 0 min 0 min 278 W/m 12,9 km/h (3 Bft) 100,00 %
16.08.2023 15:12 23,6 C 23,3 C 19,4 C 81 % 1020,1 hPa 0,0 l/m 0 min 0 min 358 W/m 12,9 km/h (3 Bft) 100,00 %
16.08.2023 15:14 23,5 C 23,3 C 19,4 C 82 % 1020,1 hPa 0,0 l/m 0 min 0 min 311 W/m 12,9 km/h (3 Bft) 97,87 %
16.08.2023 15:16 23,4 C 23,3 C 19,4 C 82 % 1020,2 hPa 0,0 l/m 0 min 0 min 256 W/m 9,7 km/h (2 Bft) 97,87 %
16.08.2023 15:18 23,4 C 23,9 C 19,4 C 82 % 1020,2 hPa 0,0 l/m 0 min 0 min 327 W/m 9,7 km/h (2 Bft) 97,87 %
16.08.2023 15:20 23,4 C 23,9 C 19,4 C 82 % 1020,1 hPa 0,0 l/m 2 min 0 min 359 W/m 12,9 km/h (3 Bft) 97,87 %
16.08.2023 15:22 23,4 C 23,9 C 19,4 C 82 % 1020,1 hPa 0,0 l/m 2 min 0 min 374 W/m 12,9 km/h (3 Bft) 97,83 %
16.08.2023 15:24 23,5 C 23,9 C 19,4 C 82 % 1020,1 hPa 0,0 l/m 2 min 0 min 358 W/m 16,1 km/h (3 Bft) 97,87 %
16.08.2023 15:26 23,5 C 24,4 C 19,4 C 82 % 1020,1 hPa 0,0 l/m 0 min 0 min 301 W/m 9,7 km/h (2 Bft) 97,87 %
16.08.2023 15:28 23,5 C 24,4 C 19,4 C 82 % 1020,0 hPa 0,0 l/m 0 min 0 min 336 W/m 12,9 km/h (3 Bft) 97,87 %
16.08.2023 15:30 23,6 C 24,4 C 19,4 C 83 % 1020,0 hPa 0,0 l/m 0 min 0 min 308 W/m 12,9 km/h (3 Bft) 97,87 %
16.08.2023 15:32 23,6 C 24,4 C 19,4 C 82 % 1020,0 hPa 0,0 l/m 2 min 0 min 355 W/m 12,9 km/h (3 Bft) 95,74 %
16.08.2023 15:34 23,6 C 24,4 C 19,4 C 82 % 1020,0 hPa 0,0 l/m 2 min 0 min 434 W/m 16,1 km/h (3 Bft) 97,83 %
16.08.2023 15:36 23,6 C 24,4 C 19,4 C 82 % 1020,1 hPa 0,0 l/m 2 min 0 min 396 W/m 16,1 km/h (3 Bft) 97,87 %
16.08.2023 15:38 23,6 C 24,4 C 19,4 C 81 % 1020,0 hPa 0,0 l/m 2 min 0 min 456 W/m 16,1 km/h (3 Bft) 95,74 %
16.08.2023 15:40 23,6 C 25,0 C 19,4 C 81 % 1020,0 hPa 0,0 l/m 2 min 0 min 552 W/m 16,1 km/h (3 Bft) 97,87 %
16.08.2023 15:42 23,7 C 25,0 C 19,4 C 81 % 1020,0 hPa 0,0 l/m 2 min 0 min 639 W/m 9,7 km/h (2 Bft) 95,74 %
16.08.2023 15:44 23,7 C 25,0 C 19,4 C 81 % 1020,0 hPa 0,0 l/m 2 min 0 min 523 W/m 12,9 km/h (3 Bft) 97,87 %
16.08.2023 15:46 23,8 C 25,6 C 20,0 C 81 % 1019,9 hPa 0,0 l/m 2 min 0 min 445 W/m 9,7 km/h (2 Bft) 97,87 %
16.08.2023 15:48 23,8 C 25,0 C 20,0 C 81 % 1020,0 hPa 0,0 l/m 2 min 0 min 350 W/m 12,9 km/h (3 Bft) 97,83 %
16.08.2023 15:50 23,8 C 25,0 C 20,0 C 81 % 1020,1 hPa 0,0 l/m 0 min 0 min 270 W/m 9,7 km/h (2 Bft) 97,87 %
16.08.2023 15:52 23,8 C 24,4 C 19,4 C 81 % 1020,0 hPa 0,0 l/m 0 min 0 min 272 W/m 16,1 km/h (3 Bft) 97,87 %
16.08.2023 15:54 23,7 C 24,4 C 19,4 C 81 % 1020,0 hPa 0,0 l/m 0 min 0 min 297 W/m 9,7 km/h (2 Bft) 97,87 %
16.08.2023 15:56 23,7 C 24,4 C 19,4 C 81 % 1020,0 hPa 0,0 l/m 2 min 0 min 344 W/m 12,9 km/h (3 Bft) 95,74 %
16.08.2023 15:58 23,7 C 23,9 C 19,4 C 81 % 1019,9 hPa 0,0 l/m 0 min 0 min 265 W/m 9,7 km/h (2 Bft) 95,74 %
16.08.2023 16:00 23,7 C 23,9 C 19,4 C 81 % 1019,9 hPa 0,0 l/m 0 min 0 min 248 W/m 12,9 km/h (3 Bft) 95,65 %
16.08.2023 16:02 23,7 C 23,9 C 19,4 C 81 % 1019,9 hPa 0,0 l/m 0 min 0 min 253 W/m 9,7 km/h (2 Bft) 97,87 %
16.08.2023 16:04 23,6 C 23,9 C 19,4 C 81 % 1019,9 hPa 0,0 l/m 2 min 0 min 348 W/m 19,3 km/h (3 Bft) 92,68 %
16.08.2023 16:06 23,6 C 23,9 C 19,4 C 81 % 1019,9 hPa 0,0 l/m 2 min 0 min 334 W/m 19,3 km/h (3 Bft) 92,45 %
16.08.2023 16:08 23,6 C 23,9 C 19,4 C 81 % 1019,9 hPa 0,0 l/m 0 min 0 min 300 W/m 6,4 km/h (2 Bft) 95,74 %
16.08.2023 16:10 23,6 C 24,4 C 19,4 C 82 % 1019,8 hPa 0,0 l/m 2 min 0 min 344 W/m 6,4 km/h (2 Bft) 95,74 %
16.08.2023 16:12 23,6 C 24,4 C 19,4 C 81 % 1019,8 hPa 0,0 l/m 2 min 0 min 431 W/m 12,9 km/h (3 Bft) 95,65 %
16.08.2023 16:14 23,6 C 24,4 C 19,4 C 81 % 1019,8 hPa 0,0 l/m 2 min 0 min 431 W/m 12,9 km/h (3 Bft) 95,74 %
16.08.2023 16:16 23,6 C 24,4 C 19,4 C 81 % 1019,8 hPa 0,0 l/m 2 min 0 min 456 W/m 9,7 km/h (2 Bft) 93,62 %
16.08.2023 16:18 23,6 C 24,4 C 20,0 C 81 % 1019,8 hPa 0,0 l/m 2 min 0 min 477 W/m 16,1 km/h (3 Bft) 95,74 %
16.08.2023 16:20 23,7 C 24,4 C 20,0 C 81 % 1019,8 hPa 0,0 l/m 2 min 0 min 373 W/m 12,9 km/h (3 Bft) 95,74 %
16.08.2023 16:22 23,7 C 24,4 C 19,4 C 81 % 1019,8 hPa 0,0 l/m 0 min 0 min 288 W/m 9,7 km/h (2 Bft) 97,87 %
16.08.2023 16:24 23,7 C 23,9 C 19,4 C 81 % 1019,8 hPa 0,0 l/m 0 min 0 min 219 W/m 9,7 km/h (2 Bft) 95,74 %
16.08.2023 16:26 23,7 C 23,9 C 19,4 C 81 % 1019,8 hPa 0,0 l/m 0 min 0 min 211 W/m 9,7 km/h (2 Bft) 95,65 %
16.08.2023 16:28 23,6 C 23,9 C 19,4 C 81 % 1019,8 hPa 0,0 l/m 0 min 0 min 249 W/m 9,7 km/h (2 Bft) 97,87 %
16.08.2023 16:30 23,6 C 23,9 C 19,4 C 81 % 1019,8 hPa 0,0 l/m 0 min 0 min 267 W/m 9,7 km/h (2 Bft) 100,00 %
16.08.2023 16:32 23,7 C 23,9 C 19,4 C 82 % 1019,8 hPa 0,0 l/m 0 min 0 min 284 W/m 6,4 km/h (2 Bft) 95,74 %
16.08.2023 16:34 23,7 C 23,9 C 19,4 C 82 % 1019,9 hPa 0,0 l/m 0 min 0 min 260 W/m 16,1 km/h (3 Bft) 95,74 %
16.08.2023 16:36 23,7 C 23,9 C 19,4 C 81 % 1019,9 hPa 0,0 l/m 0 min 0 min 210 W/m 9,7 km/h (2 Bft) 97,87 %
16.08.2023 16:38 23,6 C 23,9 C 19,4 C 81 % 1019,9 hPa 0,0 l/m 0 min 0 min 218 W/m 12,9 km/h (3 Bft) 97,83 %
16.08.2023 16:40 23,6 C 23,9 C 19,4 C 81 % 1019,9 hPa 0,0 l/m 0 min 0 min 244 W/m 16,1 km/h (3 Bft) 97,87 %
16.08.2023 16:42 23,6 C 23,9 C 19,4 C 81 % 1020,0 hPa 0,0 l/m 2 min 0 min 324 W/m 9,7 km/h (2 Bft) 97,87 %
16.08.2023 16:44 23,6 C 23,9 C 19,4 C 81 % 1020,0 hPa 0,0 l/m 2 min 0 min 348 W/m 12,9 km/h (3 Bft) 97,87 %
16.08.2023 16:46 23,6 C 23,9 C 19,4 C 81 % 1020,0 hPa 0,0 l/m 0 min 0 min 230 W/m 9,7 km/h (2 Bft) 97,87 %
16.08.2023 16:48 23,6 C 23,9 C 19,4 C 81 % 1020,0 hPa 0,0 l/m 0 min 0 min 202 W/m 6,4 km/h (2 Bft) 97,87 %
16.08.2023 16:50 23,6 C 23,9 C 19,4 C 81 % 1020,1 hPa 0,0 l/m 0 min 0 min 200 W/m 6,4 km/h (2 Bft) 100,00 %
16.08.2023 16:52 23,6 C 23,9 C 19,4 C 81 % 1020,1 hPa 0,0 l/m 0 min 0 min 219 W/m 9,7 km/h (2 Bft) 97,87 %
16.08.2023 16:54 23,6 C 23,9 C 19,4 C 82 % 1020,1 hPa 0,0 l/m 0 min 0 min 239 W/m 6,4 km/h (2 Bft) 100,00 %
16.08.2023 16:56 23,6 C 23,9 C 19,4 C 82 % 1020,0 hPa 0,0 l/m 0 min 0 min 271 W/m 12,9 km/h (3 Bft) 100,00 %
16.08.2023 16:58 23,6 C 23,9 C 19,4 C 82 % 1020,1 hPa 0,0 l/m 0 min 0 min 257 W/m 6,4 km/h (2 Bft) 100,00 %
16.08.2023 17:00 23,6 C 23,9 C 19,4 C 81 % 1020,0 hPa 0,0 l/m 0 min 0 min 255 W/m 16,1 km/h (3 Bft) 100,00 %
16.08.2023 17:02 23,6 C 24,4 C 19,4 C 81 % 1020,0 hPa 0,0 l/m 2 min 0 min 363 W/m 9,7 km/h (2 Bft) 97,83 %
16.08.2023 17:04 23,6 C 25,0 C 20,0 C 81 % 1019,9 hPa 0,0 l/m 2 min 0 min 410 W/m 6,4 km/h (2 Bft) 100,00 %
16.08.2023 17:06 23,7 C 25,0 C 20,0 C 81 % 1019,9 hPa 0,0 l/m 2 min 0 min 368 W/m 9,7 km/h (2 Bft) 100,00 %
16.08.2023 17:08 23,7 C 25,0 C 20,0 C 81 % 1019,9 hPa 0,0 l/m 2 min 0 min 289 W/m 6,4 km/h (2 Bft) 100,00 %
16.08.2023 17:10 23,8 C 25,0 C 20,0 C 81 % 1019,9 hPa 0,0 l/m 2 min 0 min 273 W/m 9,7 km/h (2 Bft) 100,00 %
16.08.2023 17:12 23,8 C 25,0 C 20,0 C 81 % 1019,9 hPa 0,0 l/m 2 min 0 min 286 W/m 19,3 km/h (3 Bft) 100,00 %
16.08.2023 17:14 23,8 C 25,0 C 20,0 C 81 % 1019,8 hPa 0,0 l/m 2 min 0 min 309 W/m 9,7 km/h (2 Bft) 100,00 %
16.08.2023 17:16 23,8 C 24,4 C 20,0 C 81 % 1019,8 hPa 0,0 l/m 2 min 0 min 271 W/m 12,9 km/h (3 Bft) 100,00 %
16.08.2023 17:18 23,9 C 23,9 C 20,0 C 81 % 1019,8 hPa 0,0 l/m 0 min 0 min 231 W/m 16,1 km/h (3 Bft) 100,00 %
16.08.2023 17:20 23,9 C 23,9 C 20,0 C 80 % 1019,8 hPa 0,0 l/m 0 min 0 min 229 W/m 16,1 km/h (3 Bft) 100,00 %
16.08.2023 17:22 23,8 C 23,9 C 19,4 C 80 % 1019,7 hPa 0,0 l/m 0 min 0 min 243 W/m 16,1 km/h (3 Bft) 100,00 %
16.08.2023 17:24 23,8 C 23,9 C 19,4 C 80 % 1019,7 hPa 0,0 l/m 0 min 0 min 251 W/m 9,7 km/h (2 Bft) 100,00 %
16.08.2023 17:26 23,8 C 23,9 C 19,4 C 81 % 1019,8 hPa 0,0 l/m 0 min 0 min 237 W/m 9,7 km/h (2 Bft) 100,00 %
16.08.2023 17:28 23,8 C 23,9 C 19,4 C 80 % 1019,7 hPa 0,0 l/m 0 min 0 min 238 W/m 6,4 km/h (2 Bft) 97,87 %
16.08.2023 17:30 23,8 C 24,4 C 19,4 C 81 % 1019,7 hPa 0,0 l/m 2 min 0 min 312 W/m 12,9 km/h (3 Bft) 97,83 %
16.08.2023 17:32 23,8 C 25,0 C 20,0 C 81 % 1019,7 hPa 0,0 l/m 2 min 0 min 434 W/m 9,7 km/h (2 Bft) 100,00 %
16.08.2023 17:34 23,8 C 24,4 C 20,0 C 80 % 1019,7 hPa 0,0 l/m 0 min 0 min 215 W/m 12,9 km/h (3 Bft) 100,00 %
16.08.2023 17:36 23,8 C 24,4 C 19,4 C 80 % 1019,7 hPa 0,0 l/m 0 min 0 min 206 W/m 9,7 km/h (2 Bft) 100,00 %
16.08.2023 17:38 23,8 C 23,9 C 19,4 C 80 % 1019,8 hPa 0,0 l/m 0 min 0 min 211 W/m 12,9 km/h (3 Bft) 100,00 %
16.08.2023 17:40 23,7 C 23,9 C 19,4 C 80 % 1019,7 hPa 0,0 l/m 0 min 0 min 207 W/m 12,9 km/h (3 Bft) 100,00 %
16.08.2023 17:42 23,7 C 23,3 C 19,4 C 80 % 1019,7 hPa 0,0 l/m 0 min 0 min 181 W/m 9,7 km/h (2 Bft) 100,00 %
16.08.2023 17:44 23,7 C 23,3 C 19,4 C 80 % 1019,7 hPa 0,0 l/m 0 min 0 min 125 W/m 12,9 km/h (3 Bft) 100,00 %
16.08.2023 17:46 23,6 C 23,3 C 19,4 C 80 % 1019,7 hPa 0,0 l/m 0 min 0 min 120 W/m 12,9 km/h (3 Bft) 100,00 %
16.08.2023 17:48 23,6 C 23,3 C 19,4 C 81 % 1019,7 hPa 0,0 l/m 0 min 0 min 146 W/m 9,7 km/h (2 Bft) 100,00 %
16.08.2023 17:50 23,6 C 23,3 C 18,9 C 81 % 1019,7 hPa 0,0 l/m 0 min 0 min 154 W/m 12,9 km/h (3 Bft) 100,00 %
16.08.2023 17:52 23,5 C 22,8 C 18,9 C 81 % 1019,6 hPa 0,0 l/m 0 min 0 min 146 W/m 9,7 km/h (2 Bft) 100,00 %
16.08.2023 17:54 23,5 C 23,3 C 18,9 C 81 % 1019,5 hPa 0,0 l/m 0 min 0 min 164 W/m 6,4 km/h (2 Bft) 100,00 %
16.08.2023 17:56 23,4 C 23,3 C 18,9 C 81 % 1019,5 hPa 0,0 l/m 0 min 0 min 162 W/m 6,4 km/h (2 Bft) 97,87 %
16.08.2023 17:58 23,4 C 23,3 C 18,9 C 81 % 1019,5 hPa 0,0 l/m 0 min 0 min 171 W/m 12,9 km/h (3 Bft) 97,83 %
16.08.2023 18:00 23,4 C 23,3 C 19,4 C 81 % 1019,5 hPa 0,0 l/m 0 min 0 min 180 W/m 6,4 km/h (2 Bft) 97,87 %
16.08.2023 18:02 23,4 C 23,3 C 19,4 C 82 % 1019,5 hPa 0,0 l/m 0 min 0 min 182 W/m 6,4 km/h (2 Bft) 97,87 %
16.08.2023 18:04 23,4 C 23,3 C 19,4 C 82 % 1019,5 hPa 0,0 l/m 0 min 0 min 176 W/m 16,1 km/h (3 Bft) 97,96 %
16.08.2023 18:07 23,4 C 23,3 C 18,9 C 81 % 1019,4 hPa 0,0 l/m 0 min 0 min 169 W/m 19,3 km/h (3 Bft) 96,15 %
16.08.2023 18:08 23,4 C 23,3 C 18,9 C 81 % 1019,4 hPa 0,0 l/m 0 min 0 min 155 W/m 12,9 km/h (3 Bft) 100,00 %
16.08.2023 18:12 23,3 C 22,8 C 18,9 C 81 % 1019,5 hPa 0,0 l/m 0 min 0 min 135 W/m 9,7 km/h (2 Bft) 97,96 %
16.08.2023 18:14 23,3 C 22,8 C 18,9 C 81 % 1019,4 hPa 0,0 l/m 0 min 0 min 124 W/m 6,4 km/h (2 Bft) 97,87 %
16.08.2023 18:16 23,3 C 22,8 C 18,9 C 81 % 1019,4 hPa 0,0 l/m 0 min 0 min 131 W/m 6,4 km/h (2 Bft) 97,87 %
16.08.2023 18:18 23,3 C 22,8 C 18,9 C 81 % 1019,4 hPa 0,0 l/m 0 min 0 min 145 W/m 12,9 km/h (3 Bft) 97,87 %
16.08.2023 18:20 23,2 C 22,8 C 18,9 C 81 % 1019,4 hPa 0,0 l/m 0 min 0 min 149 W/m 9,7 km/h (2 Bft) 93,62 %
16.08.2023 18:22 23,2 C 22,8 C 18,9 C 81 % 1019,4 hPa 0,0 l/m 0 min 0 min 149 W/m 19,3 km/h (3 Bft) 98,18 %
16.08.2023 18:24 23,2 C 22,8 C 18,9 C 81 % 1019,4 hPa 0,0 l/m 0 min 0 min 141 W/m 6,4 km/h (2 Bft) 97,96 %
16.08.2023 18:26 23,1 C 22,8 C 18,9 C 81 % 1019,3 hPa 0,0 l/m 0 min 0 min 134 W/m 12,9 km/h (3 Bft) 94,44 %
16.08.2023 18:28 23,1 C 22,8 C 18,9 C 81 % 1019,3 hPa 0,0 l/m 0 min 0 min 125 W/m 16,1 km/h (3 Bft) 97,87 %
16.08.2023 18:30 23,1 C 22,8 C 18,9 C 81 % 1019,3 hPa 0,0 l/m 0 min 0 min 125 W/m 9,7 km/h (2 Bft) 95,74 %
16.08.2023 18:32 23,1 C 22,8 C 18,9 C 81 % 1019,3 hPa 0,0 l/m 0 min 0 min 124 W/m 6,4 km/h (2 Bft) 98,18 %
16.08.2023 18:34 23,1 C 22,8 C 18,9 C 82 % 1019,3 hPa 0,0 l/m 0 min 0 min 121 W/m 6,4 km/h (2 Bft) 98,00 %
16.08.2023 18:36 23,1 C 22,8 C 18,9 C 82 % 1019,3 hPa 0,0 l/m 0 min 0 min 110 W/m 6,4 km/h (2 Bft) 97,22 %
16.08.2023 18:38 23,1 C 22,8 C 18,9 C 82 % 1019,2 hPa 0,0 l/m 0 min 0 min 98 W/m 6,4 km/h (2 Bft) 97,83 %
16.08.2023 18:40 23,1 C 22,8 C 18,9 C 82 % 1019,2 hPa 0,0 l/m 0 min 0 min 103 W/m 6,4 km/h (2 Bft) 93,62 %
16.08.2023 18:42 23,1 C 22,8 C 18,9 C 82 % 1019,2 hPa 0,0 l/m 0 min 0 min 110 W/m 6,4 km/h (2 Bft) 95,74 %
16.08.2023 18:44 23,1 C 22,8 C 18,9 C 82 % 1019,1 hPa 0,0 l/m 0 min 0 min 108 W/m 9,7 km/h (2 Bft) 95,74 %
16.08.2023 18:46 23,1 C 22,8 C 18,9 C 82 % 1019,1 hPa 0,0 l/m 0 min 0 min 100 W/m 6,4 km/h (2 Bft) 95,74 %
16.08.2023 18:48 23,1 C 22,8 C 18,9 C 83 % 1019,1 hPa 0,0 l/m 0 min 0 min 95 W/m 6,4 km/h (2 Bft) 95,74 %
16.08.2023 18:50 23,1 C 22,8 C 18,9 C 83 % 1019,1 hPa 0,0 l/m 0 min 0 min 91 W/m 6,4 km/h (2 Bft) 95,74 %
16.08.2023 18:52 23,1 C 22,8 C 18,9 C 83 % 1019,1 hPa 0,0 l/m 0 min 0 min 86 W/m 6,4 km/h (2 Bft) 95,65 %
16.08.2023 18:54 23,1 C 22,8 C 18,9 C 83 % 1019,2 hPa 0,0 l/m 0 min 0 min 85 W/m 6,4 km/h (2 Bft) 91,49 %
16.08.2023 18:56 23,1 C 22,8 C 18,9 C 83 % 1019,2 hPa 0,0 l/m 0 min 0 min 89 W/m 6,4 km/h (2 Bft) 95,74 %
16.08.2023 18:58 23,1 C 22,8 C 18,9 C 83 % 1019,2 hPa 0,0 l/m 0 min 0 min 92 W/m 6,4 km/h (2 Bft) 93,62 %
16.08.2023 19:00 23,2 C 22,8 C 18,9 C 83 % 1019,3 hPa 0,0 l/m 0 min 0 min 86 W/m 6,4 km/h (2 Bft) 95,74 %
16.08.2023 19:02 23,2 C 22,8 C 18,9 C 83 % 1019,3 hPa 0,0 l/m 0 min 0 min 77 W/m 6,4 km/h (2 Bft) 95,74 %
16.08.2023 19:04 23,2 C 22,8 C 18,9 C 83 % 1019,3 hPa 0,0 l/m 0 min 0 min 77 W/m 9,7 km/h (2 Bft) 93,62 %
16.08.2023 19:06 23,2 C 22,8 C 18,9 C 82 % 1019,3 hPa 0,0 l/m 0 min 0 min 75 W/m 6,4 km/h (2 Bft) 95,74 %
16.08.2023 19:08 23,2 C 22,8 C 18,9 C 83 % 1019,3 hPa 0,0 l/m 0 min 0 min 71 W/m 6,4 km/h (2 Bft) 95,74 %
16.08.2023 19:10 23,2 C 22,8 C 18,3 C 82 % 1019,3 hPa 0,0 l/m 0 min 0 min 69 W/m 16,1 km/h (3 Bft) 95,74 %
16.08.2023 19:12 23,2 C 22,8 C 18,3 C 82 % 1019,3 hPa 0,0 l/m 0 min 0 min 69 W/m 6,4 km/h (2 Bft) 93,62 %
16.08.2023 19:14 23,2 C 22,8 C 18,3 C 82 % 1019,3 hPa 0,0 l/m 0 min 0 min 70 W/m 19,3 km/h (3 Bft) 93,75 %
16.08.2023 19:16 23,1 C 22,2 C 18,3 C 82 % 1019,3 hPa 0,0 l/m 0 min 0 min 70 W/m 6,4 km/h (2 Bft) 93,62 %
16.08.2023 19:18 23,1 C 22,2 C 18,3 C 82 % 1019,3 hPa 0,0 l/m 0 min 0 min 67 W/m 6,4 km/h (2 Bft) 95,65 %
16.08.2023 19:20 23,1 C 22,8 C 18,3 C 83 % 1019,3 hPa 0,0 l/m 0 min 0 min 61 W/m 3,2 km/h (1 Bft) 97,87 %
16.08.2023 19:22 23,1 C 22,2 C 18,3 C 83 % 1019,3 hPa 0,0 l/m 0 min 0 min 57 W/m 9,7 km/h (2 Bft) 95,74 %
16.08.2023 19:24 23,1 C 22,2 C 18,3 C 83 % 1019,3 hPa 0,0 l/m 0 min 0 min 55 W/m 16,1 km/h (3 Bft) 97,87 %
16.08.2023 19:26 22,9 C 22,2 C 18,3 C 83 % 1019,3 hPa 0,0 l/m 0 min 0 min 54 W/m 6,4 km/h (2 Bft) 100,00 %
16.08.2023 19:28 22,9 C 22,2 C 18,3 C 83 % 1019,3 hPa 0,0 l/m 0 min 0 min 54 W/m 6,4 km/h (2 Bft) 97,87 %
16.08.2023 19:30 22,9 C 22,2 C 18,3 C 83 % 1019,3 hPa 0,0 l/m 0 min 0 min 54 W/m 6,4 km/h (2 Bft) 100,00 %
16.08.2023 19:32 22,9 C 22,2 C 18,3 C 83 % 1019,3 hPa 0,0 l/m 0 min 0 min 54 W/m 12,9 km/h (3 Bft) 100,00 %
16.08.2023 19:34 22,8 C 22,2 C 18,3 C 83 % 1019,3 hPa 0,0 l/m 0 min 0 min 54 W/m 6,4 km/h (2 Bft) 100,00 %
16.08.2023 19:36 22,8 C 22,2 C 18,3 C 83 % 1019,3 hPa 0,0 l/m 0 min 0 min 54 W/m 6,4 km/h (2 Bft) 100,00 %
16.08.2023 19:38 22,8 C 22,2 C 18,3 C 83 % 1019,3 hPa 0,0 l/m 0 min 0 min 54 W/m 3,2 km/h (1 Bft) 100,00 %
16.08.2023 19:40 22,8 C 22,2 C 18,3 C 84 % 1019,2 hPa 0,0 l/m 0 min 0 min 55 W/m 6,4 km/h (2 Bft) 100,00 %
16.08.2023 19:42 22,8 C 22,2 C 17,8 C 83 % 1019,2 hPa 0,0 l/m 0 min 0 min 55 W/m 9,7 km/h (2 Bft) 100,00 %
16.08.2023 19:44 22,7 C 22,2 C 17,8 C 83 % 1019,2 hPa 0,0 l/m 0 min 0 min 54 W/m 12,9 km/h (3 Bft) 100,00 %
16.08.2023 19:46 22,7 C 22,2 C 17,8 C 84 % 1019,2 hPa 0,0 l/m 0 min 0 min 51 W/m 6,4 km/h (2 Bft) 97,87 %
16.08.2023 19:48 22,6 C 22,2 C 17,8 C 84 % 1019,2 hPa 0,0 l/m 0 min 0 min 47 W/m 6,4 km/h (2 Bft) 100,00 %
16.08.2023 19:50 22,6 C 21,7 C 17,8 C 84 % 1019,2 hPa 0,0 l/m 0 min 0 min 44 W/m 9,7 km/h (2 Bft) 97,87 %
16.08.2023 19:52 22,6 C 21,7 C 17,8 C 84 % 1019,2 hPa 0,0 l/m 0 min 0 min 41 W/m 12,9 km/h (3 Bft) 100,00 %
16.08.2023 19:54 22,6 C 21,7 C 17,8 C 84 % 1019,2 hPa 0,0 l/m 0 min 0 min 39 W/m 16,1 km/h (3 Bft) 98,25 %
16.08.2023 19:56 22,5 C 21,7 C 17,8 C 84 % 1019,2 hPa 0,0 l/m 0 min 0 min 37 W/m 6,4 km/h (2 Bft) 97,87 %
16.08.2023 19:58 22,4 C 21,7 C 17,8 C 84 % 1019,3 hPa 0,0 l/m 0 min 0 min 34 W/m 16,1 km/h (3 Bft) 97,87 %
16.08.2023 20:00 22,4 C 21,7 C 17,8 C 84 % 1019,2 hPa 0,0 l/m 0 min 0 min 32 W/m 9,7 km/h (2 Bft) 95,65 %
16.08.2023 20:02 22,3 C 21,7 C 17,8 C 84 % 1019,2 hPa 0,0 l/m 0 min 0 min 29 W/m 12,9 km/h (3 Bft) 93,62 %
16.08.2023 20:04 22,3 C 21,7 C 17,8 C 84 % 1019,2 hPa 0,0 l/m 0 min 0 min 27 W/m 16,1 km/h (3 Bft) 95,24 %
16.08.2023 20:06 22,3 C 21,7 C 17,8 C 84 % 1019,1 hPa 0,0 l/m 0 min 0 min 25 W/m 19,3 km/h (3 Bft) 97,87 %
16.08.2023 20:08 22,3 C 21,7 C 17,8 C 84 % 1019,1 hPa 0,0 l/m 0 min 0 min 23 W/m 16,1 km/h (3 Bft) 97,87 %
16.08.2023 20:10 22,3 C 21,7 C 17,8 C 84 % 1019,1 hPa 0,0 l/m 0 min 0 min 21 W/m 16,1 km/h (3 Bft) 95,74 %
16.08.2023 20:12 22,3 C 21,1 C 17,8 C 84 % 1019,1 hPa 0,0 l/m 0 min 0 min 19 W/m 12,9 km/h (3 Bft) 95,74 %
16.08.2023 20:14 22,2 C 21,1 C 17,8 C 84 % 1019,0 hPa 0,0 l/m 0 min 0 min 18 W/m 12,9 km/h (3 Bft) 95,74 %
16.08.2023 20:15 22,2 C 21,1 C 17,8 C 84 % 1019,0 hPa 0,0 l/m 0 min 0 min 18 W/m 12,9 km/h (3 Bft) 97,37 %
16.08.2023 20:22 22,1 C 21,1 C 17,8 C 84 % 1019,1 hPa 0,0 l/m 0 min 0 min 13 W/m 16,1 km/h (3 Bft) 100,00 %
16.08.2023 20:24 22,1 C 21,1 C 17,2 C 84 % 1019,2 hPa 0,0 l/m 0 min 0 min 11 W/m 9,7 km/h (2 Bft) 94,29 %
16.08.2023 20:26 22,1 C 21,1 C 17,2 C 84 % 1019,2 hPa 0,0 l/m 0 min 0 min 11 W/m 3,2 km/h (1 Bft) 100,00 %
16.08.2023 20:28 22,1 C 21,1 C 17,2 C 85 % 1019,2 hPa 0,0 l/m 0 min 0 min 9 W/m 3,2 km/h (1 Bft) 100,00 %
16.08.2023 20:30 22,0 C 21,1 C 17,2 C 85 % 1019,2 hPa 0,0 l/m 0 min 0 min 9 W/m 6,4 km/h (2 Bft) 100,00 %
16.08.2023 20:32 22,0 C 21,1 C 17,2 C 85 % 1019,2 hPa 0,0 l/m 0 min 0 min 8 W/m 6,4 km/h (2 Bft) 100,00 %
16.08.2023 20:34 21,9 C 21,1 C 17,2 C 84 % 1019,2 hPa 0,0 l/m 0 min 0 min 7 W/m 6,4 km/h (2 Bft) 97,87 %
16.08.2023 20:36 21,9 C 21,1 C 17,2 C 84 % 1019,3 hPa 0,0 l/m 0 min 0 min 7 W/m 12,9 km/h (3 Bft) 100,00 %
16.08.2023 20:38 21,9 C 21,1 C 17,2 C 84 % 1019,4 hPa 0,0 l/m 0 min 0 min 5 W/m 9,7 km/h (2 Bft) 100,00 %
16.08.2023 20:40 21,9 C 21,1 C 17,2 C 84 % 1019,4 hPa 0,0 l/m 0 min 0 min 5 W/m 9,7 km/h (2 Bft) 100,00 %
16.08.2023 20:42 21,8 C 21,1 C 17,2 C 84 % 1019,5 hPa 0,0 l/m 0 min 0 min 0 W/m 6,4 km/h (2 Bft) 100,00 %
16.08.2023 20:44 21,8 C 21,1 C 17,2 C 84 % 1019,5 hPa 0,0 l/m 0 min 0 min 1 W/m 12,9 km/h (3 Bft) 97,87 %
16.08.2023 20:46 21,8 C 21,1 C 17,2 C 84 % 1019,5 hPa 0,0 l/m 0 min 0 min 6 W/m 6,4 km/h (2 Bft) 100,00 %
16.08.2023 20:48 21,8 C 21,1 C 17,2 C 84 % 1019,6 hPa 0,0 l/m 0 min 0 min 7 W/m 9,7 km/h (2 Bft) 100,00 %
16.08.2023 20:50 21,8 C 21,1 C 17,2 C 84 % 1019,5 hPa 0,0 l/m 0 min 0 min 4 W/m 6,4 km/h (2 Bft) 100,00 %
16.08.2023 20:52 21,8 C 21,1 C 17,2 C 84 % 1019,6 hPa 0,0 l/m 0 min 0 min 0 W/m 12,9 km/h (3 Bft) 97,87 %
16.08.2023 20:54 21,8 C 21,1 C 17,2 C 84 % 1019,6 hPa 0,0 l/m 0 min 0 min 0 W/m 6,4 km/h (2 Bft) 100,00 %
16.08.2023 20:56 21,8 C 21,1 C 17,2 C 84 % 1019,5 hPa 0,0 l/m 0 min 0 min 0 W/m 3,2 km/h (1 Bft) 95,74 %
16.08.2023 20:58 21,7 C 21,1 C 17,2 C 84 % 1019,5 hPa 0,0 l/m 0 min 0 min 0 W/m 3,2 km/h (1 Bft) 97,87 %
16.08.2023 21:00 21,7 C 20,6 C 17,2 C 84 % 1019,5 hPa 0,0 l/m 0 min 0 min 1 W/m 3,2 km/h (1 Bft) 100,00 %
16.08.2023 21:02 21,7 C 20,6 C 17,2 C 84 % 1019,5 hPa 0,0 l/m 0 min 0 min 5 W/m 6,4 km/h (2 Bft) 97,87 %
16.08.2023 21:04 21,7 C 20,6 C 17,2 C 84 % 1019,6 hPa 0,0 l/m 0 min 0 min 1 W/m 12,9 km/h (3 Bft) 100,00 %
16.08.2023 21:06 21,7 C 20,6 C 17,2 C 85 % 1019,5 hPa 0,0 l/m 0 min 0 min 0 W/m 16,1 km/h (3 Bft) 100,00 %
16.08.2023 21:08 21,6 C 20,6 C 17,2 C 85 % 1019,4 hPa 0,0 l/m 0 min 0 min 0 W/m 6,4 km/h (2 Bft) 100,00 %
16.08.2023 21:10 21,6 C 20,6 C 17,2 C 85 % 1019,4 hPa 0,0 l/m 0 min 0 min 0 W/m 9,7 km/h (2 Bft) 100,00 %
16.08.2023 21:12 21,6 C 20,6 C 17,2 C 85 % 1019,4 hPa 0,0 l/m 0 min 0 min 0 W/m 3,2 km/h (1 Bft) 100,00 %
16.08.2023 21:14 21,6 C 20,6 C 16,7 C 85 % 1019,4 hPa 0,0 l/m 0 min 0 min 0 W/m 3,2 km/h (1 Bft) 97,87 %
16.08.2023 21:16 21,6 C 20,6 C 16,7 C 85 % 1019,4 hPa 0,0 l/m 0 min 0 min 0 W/m 3,2 km/h (1 Bft) 100,00 %
16.08.2023 21:18 21,6 C 20,6 C 16,7 C 85 % 1019,4 hPa 0,0 l/m 0 min 0 min 0 W/m 6,4 km/h (2 Bft) 100,00 %
16.08.2023 21:20 21,5 C 20,6 C 16,7 C 85 % 1019,3 hPa 0,0 l/m 0 min 0 min 0 W/m 6,4 km/h (2 Bft) 97,87 %
16.08.2023 21:22 21,5 C 20,6 C 16,7 C 85 % 1019,3 hPa 0,0 l/m 0 min 0 min 0 W/m 9,7 km/h (2 Bft) 95,65 %
16.08.2023 21:24 21,4 C 20,6 C 16,7 C 85 % 1019,2 hPa 0,0 l/m 0 min 0 min 0 W/m 6,4 km/h (2 Bft) 95,74 %
16.08.2023 21:26 21,4 C 20,6 C 16,7 C 85 % 1019,2 hPa 0,0 l/m 0 min 0 min 0 W/m 6,4 km/h (2 Bft) 97,87 %
16.08.2023 21:28 21,4 C 20,6 C 16,7 C 85 % 1019,1 hPa 0,0 l/m 0 min 0 min 0 W/m 12,9 km/h (3 Bft) 97,87 %
16.08.2023 21:30 21,4 C 20,6 C 16,7 C 85 % 1019,2 hPa 0,0 l/m 0 min 0 min 0 W/m 16,1 km/h (3 Bft) 93,62 %
16.08.2023 21:32 21,4 C 20,6 C 16,7 C 85 % 1019,2 hPa 0,0 l/m 0 min 0 min 0 W/m 9,7 km/h (2 Bft) 93,62 %
16.08.2023 21:34 21,3 C 20,6 C 16,7 C 85 % 1019,2 hPa 0,0 l/m 0 min 0 min 0 W/m 6,4 km/h (2 Bft) 95,74 %
16.08.2023 21:36 21,3 C 20,6 C 16,7 C 85 % 1019,1 hPa 0,0 l/m 0 min 0 min 0 W/m 3,2 km/h (1 Bft) 93,48 %
16.08.2023 21:38 21,3 C 20,6 C 16,7 C 85 % 1019,1 hPa 0,0 l/m 0 min 0 min 0 W/m 3,2 km/h (1 Bft) 91,49 %
16.08.2023 21:40 21,3 C 20,6 C 16,7 C 86 % 1019,1 hPa 0,0 l/m 0 min 0 min 0 W/m 12,9 km/h (3 Bft) 95,74 %
16.08.2023 21:42 21,3 C 20,6 C 16,7 C 86 % 1019,0 hPa 0,0 l/m 0 min 0 min 0 W/m 6,4 km/h (2 Bft) 95,74 %
16.08.2023 21:44 21,3 C 20,6 C 16,7 C 86 % 1019,0 hPa 0,0 l/m 0 min 0 min 0 W/m 9,7 km/h (2 Bft) 95,74 %
16.08.2023 21:46 21,3 C 20,6 C 16,7 C 86 % 1019,0 hPa 0,0 l/m 0 min 0 min 0 W/m 12,9 km/h (3 Bft) 93,62 %
16.08.2023 21:48 21,2 C 20,6 C 16,7 C 86 % 1019,0 hPa 0,0 l/m 0 min 0 min 0 W/m 6,4 km/h (2 Bft) 93,48 %
16.08.2023 21:50 21,2 C 20,6 C 16,7 C 86 % 1018,9 hPa 0,0 l/m 0 min 0 min 0 W/m 6,4 km/h (2 Bft) 91,49 %
16.08.2023 21:52 21,2 C 20,0 C 16,7 C 86 % 1019,0 hPa 0,0 l/m 0 min 0 min 0 W/m 12,9 km/h (3 Bft) 91,49 %
16.08.2023 21:54 21,2 C 20,6 C 16,7 C 86 % 1019,0 hPa 0,0 l/m 0 min 0 min 0 W/m 12,9 km/h (3 Bft) 91,49 %
16.08.2023 21:56 21,2 C 20,6 C 16,7 C 86 % 1019,0 hPa 0,0 l/m 0 min 0 min 0 W/m 6,4 km/h (2 Bft) 93,62 %
16.08.2023 21:58 21,2 C 20,6 C 16,7 C 86 % 1019,0 hPa 0,0 l/m 0 min 0 min 0 W/m 12,9 km/h (3 Bft) 93,62 %
16.08.2023 22:00 21,2 C 20,0 C 16,7 C 86 % 1019,0 hPa 0,0 l/m 0 min 0 min 0 W/m 6,4 km/h (2 Bft) 95,45 %
16.08.2023 22:02 21,1 C 20,6 C 16,7 C 86 % 1019,0 hPa 0,0 l/m 0 min 0 min 0 W/m 6,4 km/h (2 Bft) 93,62 %
16.08.2023 22:04 21,1 C 20,0 C 16,7 C 86 % 1019,0 hPa 0,0 l/m 0 min 0 min 0 W/m 12,9 km/h (3 Bft) 93,62 %
16.08.2023 22:06 21,1 C 20,0 C 16,7 C 86 % 1019,0 hPa 0,0 l/m 0 min 0 min 0 W/m 6,4 km/h (2 Bft) 91,53 %
16.08.2023 22:08 21,1 C 20,0 C 16,7 C 86 % 1019,0 hPa 0,0 l/m 0 min 0 min 0 W/m 12,9 km/h (3 Bft) 97,14 %
16.08.2023 22:10 21,1 C 20,0 C 16,7 C 86 % 1019,0 hPa 0,0 l/m 0 min 0 min 0 W/m 3,2 km/h (1 Bft) 91,49 %
16.08.2023 22:12 21,1 C 20,0 C 16,7 C 86 % 1019,0 hPa 0,0 l/m 0 min 0 min 0 W/m 6,4 km/h (2 Bft) 95,74 %
16.08.2023 22:14 21,1 C 20,0 C 16,7 C 86 % 1019,0 hPa 0,0 l/m 0 min 0 min 0 W/m 25,7 km/h (4 Bft) 95,74 %
16.08.2023 22:16 21,1 C 20,0 C 16,7 C 86 % 1019,0 hPa 0,0 l/m 0 min 0 min 0 W/m 12,9 km/h (3 Bft) 95,74 %
16.08.2023 22:18 21,1 C 20,0 C 16,7 C 87 % 1019,1 hPa 0,0 l/m 0 min 0 min 0 W/m 12,9 km/h (3 Bft) 95,65 %
16.08.2023 22:20 21,1 C 20,0 C 16,7 C 87 % 1019,1 hPa 0,0 l/m 0 min 0 min 0 W/m 9,7 km/h (2 Bft) 100,00 %
16.08.2023 22:22 21,1 C 20,0 C 16,7 C 87 % 1019,1 hPa 0,0 l/m 0 min 0 min 0 W/m 12,9 km/h (3 Bft) 100,00 %
16.08.2023 22:24 21,0 C 20,0 C 16,7 C 87 % 1019,1 hPa 0,0 l/m 0 min 0 min 0 W/m 12,9 km/h (3 Bft) 100,00 %
16.08.2023 22:26 21,0 C 20,0 C 16,7 C 87 % 1019,2 hPa 0,0 l/m 0 min 0 min 0 W/m 16,1 km/h (3 Bft) 100,00 %
16.08.2023 22:28 21,0 C 20,0 C 16,7 C 87 % 1019,2 hPa 0,0 l/m 0 min 0 min 0 W/m 9,7 km/h (2 Bft) 97,87 %
16.08.2023 22:30 21,0 C 20,0 C 16,7 C 87 % 1019,2 hPa 0,0 l/m 0 min 0 min 0 W/m 6,4 km/h (2 Bft) 100,00 %
16.08.2023 22:32 20,9 C 20,0 C 16,7 C 87 % 1019,2 hPa 0,0 l/m 0 min 0 min 0 W/m 6,4 km/h (2 Bft) 100,00 %
16.08.2023 22:34 20,9 C 20,0 C 16,7 C 87 % 1019,2 hPa 0,0 l/m 0 min 0 min 0 W/m 6,4 km/h (2 Bft) 100,00 %
16.08.2023 22:36 20,9 C 20,0 C 16,7 C 87 % 1019,2 hPa 0,0 l/m 0 min 0 min 0 W/m 6,4 km/h (2 Bft) 100,00 %
16.08.2023 22:38 20,9 C 20,0 C 16,7 C 87 % 1019,1 hPa 0,0 l/m 0 min 0 min 0 W/m 6,4 km/h (2 Bft) 97,87 %
16.08.2023 22:40 20,9 C 20,0 C 16,7 C 87 % 1019,1 hPa 0,0 l/m 0 min 0 min 0 W/m 6,4 km/h (2 Bft) 100,00 %
16.08.2023 22:42 20,9 C 20,0 C 16,7 C 87 % 1019,2 hPa 0,0 l/m 0 min 0 min 0 W/m 19,3 km/h (3 Bft) 100,00 %
16.08.2023 22:44 20,9 C 20,0 C 16,7 C 87 % 1019,2 hPa 0,0 l/m 0 min 0 min 0 W/m 6,4 km/h (2 Bft) 100,00 %
16.08.2023 22:46 20,9 C 20,0 C 16,7 C 87 % 1019,2 hPa 0,0 l/m 0 min 0 min 0 W/m 12,9 km/h (3 Bft) 100,00 %
16.08.2023 22:48 20,9 C 20,0 C 16,7 C 87 % 1019,2 hPa 0,0 l/m 0 min 0 min 0 W/m 12,9 km/h (3 Bft) 100,00 %
16.08.2023 22:50 20,9 C 20,0 C 16,7 C 87 % 1019,2 hPa 0,0 l/m 0 min 0 min 0 W/m 12,9 km/h (3 Bft) 100,00 %
16.08.2023 22:52 20,8 C 20,0 C 16,7 C 87 % 1019,2 hPa 0,0 l/m 0 min 0 min 0 W/m 16,1 km/h (3 Bft) 97,87 %
16.08.2023 22:54 20,8 C 20,0 C 16,7 C 87 % 1019,2 hPa 0,0 l/m 0 min 0 min 0 W/m 16,1 km/h (3 Bft) 100,00 %
16.08.2023 22:56 20,8 C 20,0 C 16,7 C 87 % 1019,2 hPa 0,0 l/m 0 min 0 min 0 W/m 16,1 km/h (3 Bft) 100,00 %
16.08.2023 22:58 20,8 C 20,0 C 16,7 C 87 % 1019,1 hPa 0,0 l/m 0 min 0 min 0 W/m 6,4 km/h (2 Bft) 100,00 %
16.08.2023 23:00 20,8 C 20,0 C 16,7 C 87 % 1019,0 hPa 0,0 l/m 0 min 0 min 0 W/m 12,9 km/h (3 Bft) 97,87 %
16.08.2023 23:02 20,8 C 20,0 C 16,1 C 87 % 1019,1 hPa 0,0 l/m 0 min 0 min 0 W/m 12,9 km/h (3 Bft) 100,00 %
16.08.2023 23:04 20,8 C 20,0 C 16,7 C 87 % 1019,0 hPa 0,0 l/m 0 min 0 min 0 W/m 6,4 km/h (2 Bft) 97,87 %
16.08.2023 23:06 20,8 C 20,0 C 16,1 C 87 % 1019,1 hPa 0,0 l/m 0 min 0 min 0 W/m 9,7 km/h (2 Bft) 100,00 %
16.08.2023 23:08 20,7 C 20,0 C 16,1 C 87 % 1019,1 hPa 0,0 l/m 0 min 0 min 0 W/m 12,9 km/h (3 Bft) 100,00 %
16.08.2023 23:10 20,7 C 20,0 C 16,1 C 87 % 1019,1 hPa 0,0 l/m 0 min 0 min 0 W/m 12,9 km/h (3 Bft) 100,00 %
16.08.2023 23:12 20,7 C 20,0 C 16,1 C 87 % 1019,1 hPa 0,0 l/m 0 min 0 min 0 W/m 12,9 km/h (3 Bft) 100,00 %
16.08.2023 23:14 20,7 C 20,0 C 16,1 C 87 % 1019,1 hPa 0,0 l/m 0 min 0 min 0 W/m 9,7 km/h (2 Bft) 97,87 %
16.08.2023 23:16 20,7 C 20,0 C 16,1 C 87 % 1019,1 hPa 0,0 l/m 0 min 0 min 0 W/m 12,9 km/h (3 Bft) 100,00 %
16.08.2023 23:18 20,7 C 20,0 C 16,1 C 87 % 1019,1 hPa 0,0 l/m 0 min 0 min 0 W/m 9,7 km/h (2 Bft) 97,87 %
16.08.2023 23:20 20,6 C 20,0 C 16,1 C 87 % 1019,1 hPa 0,0 l/m 0 min 0 min 0 W/m 9,7 km/h (2 Bft) 100,00 %
16.08.2023 23:22 20,6 C 20,0 C 16,1 C 87 % 1019,2 hPa 0,0 l/m 0 min 0 min 0 W/m 6,4 km/h (2 Bft) 97,83 %
16.08.2023 23:24 20,6 C 20,0 C 16,1 C 87 % 1019,1 hPa 0,0 l/m 0 min 0 min 0 W/m 6,4 km/h (2 Bft) 100,00 %
16.08.2023 23:26 20,6 C 20,0 C 16,1 C 87 % 1019,1 hPa 0,0 l/m 0 min 0 min 0 W/m 16,1 km/h (3 Bft) 100,00 %
16.08.2023 23:28 20,6 C 20,0 C 16,1 C 87 % 1019,1 hPa 0,0 l/m 0 min 0 min 0 W/m 12,9 km/h (3 Bft) 100,00 %
16.08.2023 23:30 20,6 C 20,0 C 16,1 C 87 % 1019,2 hPa 0,0 l/m 0 min 0 min 0 W/m 3,2 km/h (1 Bft) 100,00 %
16.08.2023 23:32 20,6 C 20,0 C 16,1 C 87 % 1019,2 hPa 0,0 l/m 0 min 0 min 0 W/m 6,4 km/h (2 Bft) 100,00 %
16.08.2023 23:34 20,6 C 20,0 C 16,1 C 87 % 1019,2 hPa 0,0 l/m 0 min 0 min 0 W/m 3,2 km/h (1 Bft) 100,00 %
16.08.2023 23:36 20,6 C 20,0 C 16,1 C 87 % 1019,3 hPa 0,0 l/m 0 min 0 min 0 W/m 3,2 km/h (1 Bft) 97,87 %
16.08.2023 23:38 20,6 C 20,0 C 16,1 C 87 % 1019,4 hPa 0,0 l/m 0 min 0 min 0 W/m 3,2 km/h (1 Bft) 100,00 %
16.08.2023 23:40 20,6 C 20,0 C 16,1 C 87 % 1019,4 hPa 0,0 l/m 0 min 2 min 0 W/m 3,2 km/h (1 Bft) 100,00 %
16.08.2023 23:42 20,6 C 20,0 C 16,1 C 87 % 1019,5 hPa 0,0 l/m 0 min 2 min 0 W/m 6,4 km/h (2 Bft) 97,87 %
16.08.2023 23:44 20,6 C 20,0 C 15,6 C 87 % 1019,4 hPa 0,0 l/m 0 min 2 min 0 W/m 6,4 km/h (2 Bft) 97,87 %
16.08.2023 23:46 20,6 C 19,4 C 15,0 C 88 % 1019,4 hPa 0,2 l/m 0 min 2 min 0 W/m 3,2 km/h (1 Bft) 97,87 %
16.08.2023 23:48 20,6 C 19,4 C 15,0 C 88 % 1019,3 hPa 0,4 l/m 0 min 2 min 0 W/m 0,0 km/h (0 Bft) 97,83 %
16.08.2023 23:50 20,6 C 18,9 C 14,4 C 89 % 1019,3 hPa 0,6 l/m 0 min 2 min 0 W/m 3,2 km/h (1 Bft) 97,87 %
16.08.2023 23:52 20,6 C 18,9 C 14,4 C 89 % 1019,2 hPa 0,6 l/m 0 min 2 min 0 W/m 3,2 km/h (1 Bft) 97,87 %
16.08.2023 23:54 20,6 C 18,9 C 14,4 C 90 % 1019,2 hPa 0,6 l/m 0 min 2 min 0 W/m 3,2 km/h (1 Bft) 97,87 %
16.08.2023 23:56 20,4 C 18,3 C 14,4 C 90 % 1019,2 hPa 0,4 l/m 0 min 2 min 0 W/m 3,2 km/h (1 Bft) 95,74 %
16.08.2023 23:58 20,3 C 18,3 C 13,9 C 90 % 1019,2 hPa 0,4 l/m 0 min 2 min 0 W/m 3,2 km/h (1 Bft) 97,87 %
_ Min-Zeit 05:48 05:26 05:30 14:54 04:30 - - - - 00:28 06:20
Minimum _ 18,3 C 17,2 C 13,9 C 80 % 1018,9 hPa - - - - 0,0 km/h (0 Bft) 89,36 %
_ Max-Zeit 14:54 14:40 14:06 06:38 10:20 23:50 09:02 23:40 14:04 14:08 01:16
Maximum _ 24,2 C 28,9 C 20,0 C 92 % 1020,8 hPa 0,6 l/m 2 min 2 min 858 W/m 25,7 km/h
O (4 Bft)
100,00 %
Durchschnitt _ 21,1 C 21,0 C 16,9 C 86 % 1019,7 hPa #3,2 l/m #3:22 h #20 min. 212 W/m 8,1 km/h (2 Bft) 97,66 %
© 2023 W. Hausmann